<?xml version="1.0" encoding="UTF-8" standalone="no" ?>
<gpx xmlns="http://www.topografix.com/GPX/1/1" xmlns:xsi="http://www.w3.org/2001/XMLSchema-instance" xsi:schemaLocation="http://www.topografix.com/GPX/1/1 http://www.topografix.com/GPX/1/1/gpx.xsd" version="1.1" creator="VisuGPX - https://www.visugpx.com">
  <metadata>
    <name>Landévant Fort-bloqué 80km</name>
    <desc><![CDATA[Landévant Fort-bloqué 80km]]></desc>
  </metadata>
  <wpt lat="38.85555" lon="-94.79902">
    <ele>333.5</ele>
    <name><![CDATA[GARMIN]]></name>
  </wpt>
  <wpt lat="50.98288" lon="-1.4639">
    <ele>33.5</ele>
    <name><![CDATA[GRMEUR]]></name>
  </wpt>
  <wpt lat="25.06178" lon="121.64027">
    <ele>19</ele>
    <name><![CDATA[GRMTWN]]></name>
  </wpt>
  <wpt lat="47.87632" lon="-3.01188">
    <ele>86.9</ele>
    <name><![CDATA[H]]></name>
  </wpt>
  <trk>
    <name><![CDATA[Fort bloqué Auray_3]]></name>
    <extensions>
      <line xmlns="http://www.topografix.com/GPX/gpx_style/0/2">
        <color>FF0000</color>
        <width>4</width>
      </line>
    </extensions>
    <trkseg>
      <trkpt lat="47.70486" lon="-3.42419">
        <ele>-79.369576</ele>
        <time>2020-12-29T09:30:16.000Z</time>
      </trkpt>
      <trkpt lat="47.70478" lon="-3.42401">
        <ele>-79.369576</ele>
        <time>2020-12-29T09:30:19.000Z</time>
      </trkpt>
      <trkpt lat="47.7047" lon="-3.42387">
        <ele>-79.369576</ele>
        <time>2020-12-29T09:30:21.000Z</time>
      </trkpt>
      <trkpt lat="47.70459" lon="-3.42373">
        <ele>-79.369576</ele>
        <time>2020-12-29T09:30:24.000Z</time>
      </trkpt>
      <trkpt lat="47.70444" lon="-3.4236">
        <ele>-79.369576</ele>
        <time>2020-12-29T09:30:27.000Z</time>
      </trkpt>
      <trkpt lat="47.70439" lon="-3.42357">
        <ele>-79.369576</ele>
        <time>2020-12-29T09:30:28.000Z</time>
      </trkpt>
      <trkpt lat="47.70435" lon="-3.42355">
        <ele>-79.369576</ele>
        <time>2020-12-29T09:30:29.000Z</time>
      </trkpt>
      <trkpt lat="47.7043" lon="-3.42353">
        <ele>-79.369576</ele>
        <time>2020-12-29T09:30:30.000Z</time>
      </trkpt>
      <trkpt lat="47.70421" lon="-3.42347">
        <ele>-79.369576</ele>
        <time>2020-12-29T09:30:32.000Z</time>
      </trkpt>
      <trkpt lat="47.70416" lon="-3.42342">
        <ele>-79.369576</ele>
        <time>2020-12-29T09:30:33.000Z</time>
      </trkpt>
      <trkpt lat="47.70382" lon="-3.42311">
        <ele>-78.904294</ele>
        <time>2020-12-29T09:30:40.000Z</time>
      </trkpt>
      <trkpt lat="47.70343" lon="-3.42281">
        <ele>-78.387181</ele>
        <time>2020-12-29T09:30:48.000Z</time>
      </trkpt>
      <trkpt lat="47.70338" lon="-3.42279">
        <ele>-78.329356</ele>
        <time>2020-12-29T09:30:49.000Z</time>
      </trkpt>
      <trkpt lat="47.70329" lon="-3.42274">
        <ele>-78.212809</ele>
        <time>2020-12-29T09:30:51.000Z</time>
      </trkpt>
      <trkpt lat="47.70322" lon="-3.42265">
        <ele>-78.098223</ele>
        <time>2020-12-29T09:30:53.000Z</time>
      </trkpt>
      <trkpt lat="47.70315" lon="-3.42252">
        <ele>-77.976194</ele>
        <time>2020-12-29T09:30:55.000Z</time>
      </trkpt>
      <trkpt lat="47.70306" lon="-3.42235">
        <ele>-77.800628</ele>
        <time>2020-12-29T09:30:58.000Z</time>
      </trkpt>
      <trkpt lat="47.70302" lon="-3.4223">
        <ele>-77.744167</ele>
        <time>2020-12-29T09:30:59.000Z</time>
      </trkpt>
      <trkpt lat="47.7029" lon="-3.42222">
        <ele>-77.581196</ele>
        <time>2020-12-29T09:31:02.000Z</time>
      </trkpt>
      <trkpt lat="47.70286" lon="-3.4222">
        <ele>-77.529907</ele>
        <time>2020-12-29T09:31:03.000Z</time>
      </trkpt>
      <trkpt lat="47.70271" lon="-3.42217">
        <ele>-77.354743</ele>
        <time>2020-12-29T09:31:07.000Z</time>
      </trkpt>
      <trkpt lat="47.70269" lon="-3.42214">
        <ele>-77.321095</ele>
        <time>2020-12-29T09:31:08.000Z</time>
      </trkpt>
      <trkpt lat="47.70258" lon="-3.42205">
        <ele>-77.199262</ele>
        <time>2020-12-29T09:31:12.000Z</time>
      </trkpt>
      <trkpt lat="47.70252" lon="-3.422">
        <ele>-77.136328</ele>
        <time>2020-12-29T09:31:15.000Z</time>
      </trkpt>
      <trkpt lat="47.70251" lon="-3.42198">
        <ele>-77.115975</ele>
        <time>2020-12-29T09:31:16.000Z</time>
      </trkpt>
      <trkpt lat="47.7025" lon="-3.42179">
        <ele>-77.008842</ele>
        <time>2020-12-29T09:31:20.000Z</time>
      </trkpt>
      <trkpt lat="47.70247" lon="-3.42171">
        <ele>-76.953998</ele>
        <time>2020-12-29T09:31:22.000Z</time>
      </trkpt>
      <trkpt lat="47.70244" lon="-3.42168">
        <ele>-76.921978</ele>
        <time>2020-12-29T09:31:23.000Z</time>
      </trkpt>
      <trkpt lat="47.70227" lon="-3.42165">
        <ele>-76.778052</ele>
        <time>2020-12-29T09:31:27.000Z</time>
      </trkpt>
      <trkpt lat="47.70215" lon="-3.42157">
        <ele>-76.660365</ele>
        <time>2020-12-29T09:31:30.000Z</time>
      </trkpt>
      <trkpt lat="47.70203" lon="-3.42136">
        <ele>-76.498029</ele>
        <time>2020-12-29T09:31:34.000Z</time>
      </trkpt>
      <trkpt lat="47.702" lon="-3.4213">
        <ele>-76.454938</ele>
        <time>2020-12-29T09:31:35.000Z</time>
      </trkpt>
      <trkpt lat="47.70197" lon="-3.42124">
        <ele>-76.410494</ele>
        <time>2020-12-29T09:31:36.000Z</time>
      </trkpt>
      <trkpt lat="47.70185" lon="-3.42112">
        <ele>-76.284475</ele>
        <time>2020-12-29T09:31:39.000Z</time>
      </trkpt>
      <trkpt lat="47.70176" lon="-3.42096">
        <ele>-76.165037</ele>
        <time>2020-12-29T09:31:42.000Z</time>
      </trkpt>
      <trkpt lat="47.70173" lon="-3.42091">
        <ele>-76.126789</ele>
        <time>2020-12-29T09:31:43.000Z</time>
      </trkpt>
      <trkpt lat="47.70168" lon="-3.4207">
        <ele>-75.995299</ele>
        <time>2020-12-29T09:31:47.000Z</time>
      </trkpt>
      <trkpt lat="47.70163" lon="-3.42052">
        <ele>-75.882606</ele>
        <time>2020-12-29T09:31:50.000Z</time>
      </trkpt>
      <trkpt lat="47.70157" lon="-3.4204">
        <ele>-75.796436</ele>
        <time>2020-12-29T09:31:52.000Z</time>
      </trkpt>
      <trkpt lat="47.70148" lon="-3.42023">
        <ele>-75.709326</ele>
        <time>2020-12-29T09:31:55.000Z</time>
      </trkpt>
      <trkpt lat="47.70142" lon="-3.42004">
        <ele>-75.800848</ele>
        <time>2020-12-29T09:31:58.000Z</time>
      </trkpt>
      <trkpt lat="47.70134" lon="-3.4197">
        <ele>-75.957128</ele>
        <time>2020-12-29T09:32:04.000Z</time>
      </trkpt>
      <trkpt lat="47.70134" lon="-3.41964">
        <ele>-75.984324</ele>
        <time>2020-12-29T09:32:05.000Z</time>
      </trkpt>
      <trkpt lat="47.70135" lon="-3.41944">
        <ele>-76.07019</ele>
        <time>2020-12-29T09:32:08.000Z</time>
      </trkpt>
      <trkpt lat="47.7013" lon="-3.41926">
        <ele>-76.15621</ele>
        <time>2020-12-29T09:32:11.000Z</time>
      </trkpt>
      <trkpt lat="47.70129" lon="-3.41921">
        <ele>-76.182601</ele>
        <time>2020-12-29T09:32:12.000Z</time>
      </trkpt>
      <trkpt lat="47.70126" lon="-3.41896">
        <ele>-76.291254</ele>
        <time>2020-12-29T09:32:16.000Z</time>
      </trkpt>
      <trkpt lat="47.70126" lon="-3.41889">
        <ele>-76.324169</ele>
        <time>2020-12-29T09:32:17.000Z</time>
      </trkpt>
      <trkpt lat="47.70127" lon="-3.41872">
        <ele>-76.396629</ele>
        <time>2020-12-29T09:32:19.000Z</time>
      </trkpt>
      <trkpt lat="47.70129" lon="-3.41839">
        <ele>-76.54292</ele>
        <time>2020-12-29T09:32:23.000Z</time>
      </trkpt>
      <trkpt lat="47.70129" lon="-3.41825">
        <ele>-76.604367</ele>
        <time>2020-12-29T09:32:25.000Z</time>
      </trkpt>
      <trkpt lat="47.70129" lon="-3.4181">
        <ele>-76.671024</ele>
        <time>2020-12-29T09:32:27.000Z</time>
      </trkpt>
      <trkpt lat="47.70127" lon="-3.41795">
        <ele>-76.739285</ele>
        <time>2020-12-29T09:32:29.000Z</time>
      </trkpt>
      <trkpt lat="47.70122" lon="-3.41772">
        <ele>-76.844502</ele>
        <time>2020-12-29T09:32:32.000Z</time>
      </trkpt>
      <trkpt lat="47.70108" lon="-3.41729">
        <ele>-76.763431</ele>
        <time>2020-12-29T09:32:38.000Z</time>
      </trkpt>
      <trkpt lat="47.70097" lon="-3.41684">
        <ele>-76.655351</ele>
        <time>2020-12-29T09:32:44.000Z</time>
      </trkpt>
      <trkpt lat="47.70092" lon="-3.41636">
        <ele>-76.544534</ele>
        <time>2020-12-29T09:32:50.000Z</time>
      </trkpt>
      <trkpt lat="47.70093" lon="-3.41614">
        <ele>-76.493347</ele>
        <time>2020-12-29T09:32:53.000Z</time>
      </trkpt>
      <trkpt lat="47.70093" lon="-3.41599">
        <ele>-76.460125</ele>
        <time>2020-12-29T09:32:55.000Z</time>
      </trkpt>
      <trkpt lat="47.701" lon="-3.41546">
        <ele>-76.337098</ele>
        <time>2020-12-29T09:33:02.000Z</time>
      </trkpt>
      <trkpt lat="47.70106" lon="-3.41508">
        <ele>-76.263948</ele>
        <time>2020-12-29T09:33:07.000Z</time>
      </trkpt>
      <trkpt lat="47.70111" lon="-3.41496">
        <ele>-76.318726</ele>
        <time>2020-12-29T09:33:09.000Z</time>
      </trkpt>
      <trkpt lat="47.70124" lon="-3.41474">
        <ele>-76.431529</ele>
        <time>2020-12-29T09:33:13.000Z</time>
      </trkpt>
      <trkpt lat="47.70129" lon="-3.41461">
        <ele>-76.48806</ele>
        <time>2020-12-29T09:33:15.000Z</time>
      </trkpt>
      <trkpt lat="47.70144" lon="-3.41444">
        <ele>-76.593213</ele>
        <time>2020-12-29T09:33:19.000Z</time>
      </trkpt>
      <trkpt lat="47.70152" lon="-3.41441">
        <ele>-76.642294</ele>
        <time>2020-12-29T09:33:22.000Z</time>
      </trkpt>
      <trkpt lat="47.70159" lon="-3.41425">
        <ele>-76.714804</ele>
        <time>2020-12-29T09:33:26.000Z</time>
      </trkpt>
      <trkpt lat="47.70168" lon="-3.41413">
        <ele>-76.783729</ele>
        <time>2020-12-29T09:33:30.000Z</time>
      </trkpt>
      <trkpt lat="47.7017" lon="-3.41409">
        <ele>-76.803807</ele>
        <time>2020-12-29T09:33:31.000Z</time>
      </trkpt>
      <trkpt lat="47.70175" lon="-3.41391">
        <ele>-76.878052</ele>
        <time>2020-12-29T09:33:35.000Z</time>
      </trkpt>
      <trkpt lat="47.70176" lon="-3.41383">
        <ele>-76.908393</ele>
        <time>2020-12-29T09:33:39.000Z</time>
      </trkpt>
      <trkpt lat="47.70177" lon="-3.4138">
        <ele>-76.922325</ele>
        <time>2020-12-29T09:33:42.000Z</time>
      </trkpt>
      <trkpt lat="47.7018" lon="-3.41379">
        <ele>-76.938494</ele>
        <time>2020-12-29T09:33:44.000Z</time>
      </trkpt>
      <trkpt lat="47.70184" lon="-3.4137">
        <ele>-76.98159</ele>
        <time>2020-12-29T09:33:47.000Z</time>
      </trkpt>
      <trkpt lat="47.70185" lon="-3.41364">
        <ele>-77.004305</ele>
        <time>2020-12-29T09:33:48.000Z</time>
      </trkpt>
      <trkpt lat="47.70186" lon="-3.41358">
        <ele>-77.027392</ele>
        <time>2020-12-29T09:33:49.000Z</time>
      </trkpt>
      <trkpt lat="47.70191" lon="-3.41341">
        <ele>-77.098657</ele>
        <time>2020-12-29T09:33:52.000Z</time>
      </trkpt>
      <trkpt lat="47.70206" lon="-3.41312">
        <ele>-77.238808</ele>
        <time>2020-12-29T09:33:58.000Z</time>
      </trkpt>
      <trkpt lat="47.70223" lon="-3.4129">
        <ele>-77.194714</ele>
        <time>2020-12-29T09:34:04.000Z</time>
      </trkpt>
      <trkpt lat="47.70233" lon="-3.41275">
        <ele>-77.125618</ele>
        <time>2020-12-29T09:34:09.000Z</time>
      </trkpt>
      <trkpt lat="47.70236" lon="-3.41273">
        <ele>-77.11306</ele>
        <time>2020-12-29T09:34:11.000Z</time>
      </trkpt>
      <trkpt lat="47.70238" lon="-3.41274">
        <ele>-77.100247</ele>
        <time>2020-12-29T09:34:13.000Z</time>
      </trkpt>
      <trkpt lat="47.70248" lon="-3.41283">
        <ele>-77.043768</ele>
        <time>2020-12-29T09:34:18.000Z</time>
      </trkpt>
      <trkpt lat="47.70254" lon="-3.41278">
        <ele>-77.010997</ele>
        <time>2020-12-29T09:34:22.000Z</time>
      </trkpt>
      <trkpt lat="47.7026" lon="-3.41263">
        <ele>-76.9558</ele>
        <time>2020-12-29T09:34:26.000Z</time>
      </trkpt>
      <trkpt lat="47.70266" lon="-3.41253">
        <ele>-76.908961</ele>
        <time>2020-12-29T09:34:29.000Z</time>
      </trkpt>
      <trkpt lat="47.70271" lon="-3.41244">
        <ele>-76.868976</ele>
        <time>2020-12-29T09:34:31.000Z</time>
      </trkpt>
      <trkpt lat="47.70286" lon="-3.41218">
        <ele>-76.757854</ele>
        <time>2020-12-29T09:34:37.000Z</time>
      </trkpt>
      <trkpt lat="47.70302" lon="-3.41212">
        <ele>-76.679016</ele>
        <time>2020-12-29T09:34:41.000Z</time>
      </trkpt>
      <trkpt lat="47.70309" lon="-3.4121">
        <ele>-76.644833</ele>
        <time>2020-12-29T09:34:43.000Z</time>
      </trkpt>
      <trkpt lat="47.70311" lon="-3.41206">
        <ele>-76.626737</ele>
        <time>2020-12-29T09:34:44.000Z</time>
      </trkpt>
      <trkpt lat="47.7032" lon="-3.41192">
        <ele>-76.562915</ele>
        <time>2020-12-29T09:34:47.000Z</time>
      </trkpt>
      <trkpt lat="47.70326" lon="-3.41184">
        <ele>-76.524318</ele>
        <time>2020-12-29T09:34:49.000Z</time>
      </trkpt>
      <trkpt lat="47.70324" lon="-3.4117">
        <ele>-76.479146</ele>
        <time>2020-12-29T09:34:52.000Z</time>
      </trkpt>
      <trkpt lat="47.70318" lon="-3.41163">
        <ele>-76.444595</ele>
        <time>2020-12-29T09:34:54.000Z</time>
      </trkpt>
      <trkpt lat="47.70316" lon="-3.41159">
        <ele>-76.425383</ele>
        <time>2020-12-29T09:34:55.000Z</time>
      </trkpt>
      <trkpt lat="47.70309" lon="-3.41151">
        <ele>-76.41422</ele>
        <time>2020-12-29T09:34:57.000Z</time>
      </trkpt>
      <trkpt lat="47.70289" lon="-3.41125">
        <ele>-76.630814</ele>
        <time>2020-12-29T09:35:03.000Z</time>
      </trkpt>
      <trkpt lat="47.70283" lon="-3.41116">
        <ele>-76.701531</ele>
        <time>2020-12-29T09:35:05.000Z</time>
      </trkpt>
      <trkpt lat="47.70281" lon="-3.41105">
        <ele>-76.764685</ele>
        <time>2020-12-29T09:35:07.000Z</time>
      </trkpt>
      <trkpt lat="47.70282" lon="-3.41099">
        <ele>-76.800129</ele>
        <time>2020-12-29T09:35:08.000Z</time>
      </trkpt>
      <trkpt lat="47.70287" lon="-3.41088">
        <ele>-76.87444</ele>
        <time>2020-12-29T09:35:10.000Z</time>
      </trkpt>
      <trkpt lat="47.7029" lon="-3.41083">
        <ele>-76.909646</ele>
        <time>2020-12-29T09:35:11.000Z</time>
      </trkpt>
      <trkpt lat="47.70302" lon="-3.41064">
        <ele>-77.053211</ele>
        <time>2020-12-29T09:35:16.000Z</time>
      </trkpt>
      <trkpt lat="47.70307" lon="-3.41045">
        <ele>-77.164854</ele>
        <time>2020-12-29T09:35:20.000Z</time>
      </trkpt>
      <trkpt lat="47.7031" lon="-3.41032">
        <ele>-77.236634</ele>
        <time>2020-12-29T09:35:22.000Z</time>
      </trkpt>
      <trkpt lat="47.70309" lon="-3.41018">
        <ele>-77.315189</ele>
        <time>2020-12-29T09:35:24.000Z</time>
      </trkpt>
      <trkpt lat="47.70303" lon="-3.41007">
        <ele>-77.393404</ele>
        <time>2020-12-29T09:35:26.000Z</time>
      </trkpt>
      <trkpt lat="47.70299" lon="-3.41002">
        <ele>-77.431438</ele>
        <time>2020-12-29T09:35:27.000Z</time>
      </trkpt>
      <trkpt lat="47.70295" lon="-3.40998">
        <ele>-77.470919</ele>
        <time>2020-12-29T09:35:28.000Z</time>
      </trkpt>
      <trkpt lat="47.70283" lon="-3.40988">
        <ele>-77.581358</ele>
        <time>2020-12-29T09:35:31.000Z</time>
      </trkpt>
      <trkpt lat="47.70277" lon="-3.4098">
        <ele>-77.652101</ele>
        <time>2020-12-29T09:35:33.000Z</time>
      </trkpt>
      <trkpt lat="47.70268" lon="-3.40965">
        <ele>-77.757668</ele>
        <time>2020-12-29T09:35:36.000Z</time>
      </trkpt>
      <trkpt lat="47.70267" lon="-3.40953">
        <ele>-77.821601</ele>
        <time>2020-12-29T09:35:38.000Z</time>
      </trkpt>
      <trkpt lat="47.70267" lon="-3.40947">
        <ele>-77.85288</ele>
        <time>2020-12-29T09:35:39.000Z</time>
      </trkpt>
      <trkpt lat="47.70269" lon="-3.40928">
        <ele>-77.937389</ele>
        <time>2020-12-29T09:35:42.000Z</time>
      </trkpt>
      <trkpt lat="47.70268" lon="-3.40916">
        <ele>-77.990381</ele>
        <time>2020-12-29T09:35:44.000Z</time>
      </trkpt>
      <trkpt lat="47.70274" lon="-3.40898">
        <ele>-78.076665</ele>
        <time>2020-12-29T09:35:47.000Z</time>
      </trkpt>
      <trkpt lat="47.70277" lon="-3.40892">
        <ele>-78.109112</ele>
        <time>2020-12-29T09:35:48.000Z</time>
      </trkpt>
      <trkpt lat="47.7028" lon="-3.40887">
        <ele>-78.143165</ele>
        <time>2020-12-29T09:35:49.000Z</time>
      </trkpt>
      <trkpt lat="47.70284" lon="-3.40881">
        <ele>-78.177782</ele>
        <time>2020-12-29T09:35:50.000Z</time>
      </trkpt>
      <trkpt lat="47.70291" lon="-3.40869">
        <ele>-78.245865</ele>
        <time>2020-12-29T09:35:52.000Z</time>
      </trkpt>
      <trkpt lat="47.70308" lon="-3.40825">
        <ele>-78.467397</ele>
        <time>2020-12-29T09:35:59.000Z</time>
      </trkpt>
      <trkpt lat="47.70326" lon="-3.40787">
        <ele>-78.673076</ele>
        <time>2020-12-29T09:36:06.000Z</time>
      </trkpt>
      <trkpt lat="47.70332" lon="-3.40768">
        <ele>-78.762491</ele>
        <time>2020-12-29T09:36:09.000Z</time>
      </trkpt>
      <trkpt lat="47.70337" lon="-3.4075">
        <ele>-78.849332</ele>
        <time>2020-12-29T09:36:12.000Z</time>
      </trkpt>
      <trkpt lat="47.70349" lon="-3.40728">
        <ele>-78.973623</ele>
        <time>2020-12-29T09:36:17.000Z</time>
      </trkpt>
      <trkpt lat="47.70363" lon="-3.40698">
        <ele>-79.268742</ele>
        <time>2020-12-29T09:36:23.000Z</time>
      </trkpt>
      <trkpt lat="47.70365" lon="-3.40692">
        <ele>-79.335019</ele>
        <time>2020-12-29T09:36:24.000Z</time>
      </trkpt>
      <trkpt lat="47.70367" lon="-3.40671">
        <ele>-79.540201</ele>
        <time>2020-12-29T09:36:27.000Z</time>
      </trkpt>
      <trkpt lat="47.7036" lon="-3.4065">
        <ele>-79.775948</ele>
        <time>2020-12-29T09:36:31.000Z</time>
      </trkpt>
      <trkpt lat="47.70355" lon="-3.40634">
        <ele>-79.950774</ele>
        <time>2020-12-29T09:36:35.000Z</time>
      </trkpt>
      <trkpt lat="47.70356" lon="-3.40629">
        <ele>-79.995589</ele>
        <time>2020-12-29T09:36:36.000Z</time>
      </trkpt>
      <trkpt lat="47.70355" lon="-3.40599">
        <ele>-80.287654</ele>
        <time>2020-12-29T09:36:41.000Z</time>
      </trkpt>
      <trkpt lat="47.70349" lon="-3.40568">
        <ele>-80.612169</ele>
        <time>2020-12-29T09:36:45.000Z</time>
      </trkpt>
      <trkpt lat="47.70348" lon="-3.40558">
        <ele>-80.70425</ele>
        <time>2020-12-29T09:36:46.000Z</time>
      </trkpt>
      <trkpt lat="47.70347" lon="-3.4055">
        <ele>-80.787419</ele>
        <time>2020-12-29T09:36:47.000Z</time>
      </trkpt>
      <trkpt lat="47.70347" lon="-3.40504">
        <ele>-81.241438</ele>
        <time>2020-12-29T09:36:52.000Z</time>
      </trkpt>
      <trkpt lat="47.70343" lon="-3.40438">
        <ele>-81.599975</ele>
        <time>2020-12-29T09:36:59.000Z</time>
      </trkpt>
      <trkpt lat="47.70342" lon="-3.40429">
        <ele>-81.580961</ele>
        <time>2020-12-29T09:37:00.000Z</time>
      </trkpt>
      <trkpt lat="47.70342" lon="-3.40398">
        <ele>-81.519438</ele>
        <time>2020-12-29T09:37:04.000Z</time>
      </trkpt>
      <trkpt lat="47.70342" lon="-3.40392">
        <ele>-81.507762</ele>
        <time>2020-12-29T09:37:06.000Z</time>
      </trkpt>
      <trkpt lat="47.70342" lon="-3.40385">
        <ele>-81.493459</ele>
        <time>2020-12-29T09:37:08.000Z</time>
      </trkpt>
      <trkpt lat="47.70343" lon="-3.40373">
        <ele>-81.467785</ele>
        <time>2020-12-29T09:37:10.000Z</time>
      </trkpt>
      <trkpt lat="47.70344" lon="-3.40365">
        <ele>-81.451801</ele>
        <time>2020-12-29T09:37:11.000Z</time>
      </trkpt>
      <trkpt lat="47.70344" lon="-3.40348">
        <ele>-81.418178</ele>
        <time>2020-12-29T09:37:13.000Z</time>
      </trkpt>
      <trkpt lat="47.7034" lon="-3.40325">
        <ele>-81.369683</ele>
        <time>2020-12-29T09:37:16.000Z</time>
      </trkpt>
      <trkpt lat="47.70334" lon="-3.40313">
        <ele>-81.340644</ele>
        <time>2020-12-29T09:37:18.000Z</time>
      </trkpt>
      <trkpt lat="47.70332" lon="-3.40307">
        <ele>-81.327282</ele>
        <time>2020-12-29T09:37:19.000Z</time>
      </trkpt>
      <trkpt lat="47.70331" lon="-3.40301">
        <ele>-81.314464</ele>
        <time>2020-12-29T09:37:20.000Z</time>
      </trkpt>
      <trkpt lat="47.70335" lon="-3.4028">
        <ele>-81.270004</ele>
        <time>2020-12-29T09:37:23.000Z</time>
      </trkpt>
      <trkpt lat="47.70342" lon="-3.4025">
        <ele>-81.206069</ele>
        <time>2020-12-29T09:37:27.000Z</time>
      </trkpt>
      <trkpt lat="47.70343" lon="-3.40242">
        <ele>-81.190342</ele>
        <time>2020-12-29T09:37:28.000Z</time>
      </trkpt>
      <trkpt lat="47.70344" lon="-3.40234">
        <ele>-81.174319</ele>
        <time>2020-12-29T09:37:29.000Z</time>
      </trkpt>
      <trkpt lat="47.70349" lon="-3.4022">
        <ele>-81.142313</ele>
        <time>2020-12-29T09:37:31.000Z</time>
      </trkpt>
      <trkpt lat="47.70354" lon="-3.40206">
        <ele>-81.109236</ele>
        <time>2020-12-29T09:37:33.000Z</time>
      </trkpt>
      <trkpt lat="47.70357" lon="-3.40189">
        <ele>-81.071408</ele>
        <time>2020-12-29T09:37:35.000Z</time>
      </trkpt>
      <trkpt lat="47.70359" lon="-3.40136">
        <ele>-80.954398</ele>
        <time>2020-12-29T09:37:41.000Z</time>
      </trkpt>
      <trkpt lat="47.70356" lon="-3.40103">
        <ele>-80.881266</ele>
        <time>2020-12-29T09:37:45.000Z</time>
      </trkpt>
      <trkpt lat="47.70357" lon="-3.40093">
        <ele>-80.861063</ele>
        <time>2020-12-29T09:37:46.000Z</time>
      </trkpt>
      <trkpt lat="47.7036" lon="-3.40058">
        <ele>-80.782429</ele>
        <time>2020-12-29T09:37:50.000Z</time>
      </trkpt>
      <trkpt lat="47.7036" lon="-3.40049">
        <ele>-80.763848</ele>
        <time>2020-12-29T09:37:51.000Z</time>
      </trkpt>
      <trkpt lat="47.70355" lon="-3.40008">
        <ele>-80.672024</ele>
        <time>2020-12-29T09:37:56.000Z</time>
      </trkpt>
      <trkpt lat="47.70354" lon="-3.39999">
        <ele>-80.651905</ele>
        <time>2020-12-29T09:37:57.000Z</time>
      </trkpt>
      <trkpt lat="47.70354" lon="-3.3999">
        <ele>-80.631703</ele>
        <time>2020-12-29T09:37:58.000Z</time>
      </trkpt>
      <trkpt lat="47.70353" lon="-3.39972">
        <ele>-80.59384</ele>
        <time>2020-12-29T09:38:00.000Z</time>
      </trkpt>
      <trkpt lat="47.70353" lon="-3.39963">
        <ele>-80.573908</ele>
        <time>2020-12-29T09:38:01.000Z</time>
      </trkpt>
      <trkpt lat="47.70351" lon="-3.39945">
        <ele>-80.534374</ele>
        <time>2020-12-29T09:38:03.000Z</time>
      </trkpt>
      <trkpt lat="47.70347" lon="-3.39917">
        <ele>-80.598733</ele>
        <time>2020-12-29T09:38:06.000Z</time>
      </trkpt>
      <trkpt lat="47.70341" lon="-3.3985">
        <ele>-80.788679</ele>
        <time>2020-12-29T09:38:13.000Z</time>
      </trkpt>
      <trkpt lat="47.70335" lon="-3.39823">
        <ele>-80.868013</ele>
        <time>2020-12-29T09:38:16.000Z</time>
      </trkpt>
      <trkpt lat="47.70336" lon="-3.39794">
        <ele>-80.949019</ele>
        <time>2020-12-29T09:38:19.000Z</time>
      </trkpt>
      <trkpt lat="47.70338" lon="-3.39774">
        <ele>-81.005802</ele>
        <time>2020-12-29T09:38:21.000Z</time>
      </trkpt>
      <trkpt lat="47.70337" lon="-3.39745">
        <ele>-81.085301</ele>
        <time>2020-12-29T09:38:24.000Z</time>
      </trkpt>
      <trkpt lat="47.70334" lon="-3.39719">
        <ele>-81.161595</ele>
        <time>2020-12-29T09:38:28.000Z</time>
      </trkpt>
      <trkpt lat="47.70332" lon="-3.39702">
        <ele>-81.207781</ele>
        <time>2020-12-29T09:38:31.000Z</time>
      </trkpt>
      <trkpt lat="47.7033" lon="-3.39689">
        <ele>-81.245539</ele>
        <time>2020-12-29T09:38:33.000Z</time>
      </trkpt>
      <trkpt lat="47.7033" lon="-3.39682">
        <ele>-81.266008</ele>
        <time>2020-12-29T09:38:34.000Z</time>
      </trkpt>
      <trkpt lat="47.70329" lon="-3.39667">
        <ele>-81.281615</ele>
        <time>2020-12-29T09:38:36.000Z</time>
      </trkpt>
      <trkpt lat="47.70327" lon="-3.39652">
        <ele>-81.29121</ele>
        <time>2020-12-29T09:38:38.000Z</time>
      </trkpt>
      <trkpt lat="47.70327" lon="-3.39643">
        <ele>-81.296546</ele>
        <time>2020-12-29T09:38:39.000Z</time>
      </trkpt>
      <trkpt lat="47.70324" lon="-3.39595">
        <ele>-81.326316</ele>
        <time>2020-12-29T09:38:44.000Z</time>
      </trkpt>
      <trkpt lat="47.70321" lon="-3.39536">
        <ele>-81.362693</ele>
        <time>2020-12-29T09:38:50.000Z</time>
      </trkpt>
      <trkpt lat="47.70319" lon="-3.39527">
        <ele>-81.368735</ele>
        <time>2020-12-29T09:38:51.000Z</time>
      </trkpt>
      <trkpt lat="47.70311" lon="-3.39502">
        <ele>-81.386013</ele>
        <time>2020-12-29T09:38:54.000Z</time>
      </trkpt>
      <trkpt lat="47.70294" lon="-3.39453">
        <ele>-81.420132</ele>
        <time>2020-12-29T09:39:00.000Z</time>
      </trkpt>
      <trkpt lat="47.70291" lon="-3.39444">
        <ele>-81.426196</ele>
        <time>2020-12-29T09:39:01.000Z</time>
      </trkpt>
      <trkpt lat="47.70282" lon="-3.39394">
        <ele>-80.969872</ele>
        <time>2020-12-29T09:39:07.000Z</time>
      </trkpt>
      <trkpt lat="47.70281" lon="-3.39388">
        <ele>-80.883057</ele>
        <time>2020-12-29T09:39:08.000Z</time>
      </trkpt>
      <trkpt lat="47.70279" lon="-3.39385">
        <ele>-80.818064</ele>
        <time>2020-12-29T09:39:09.000Z</time>
      </trkpt>
      <trkpt lat="47.70276" lon="-3.39384">
        <ele>-80.754878</ele>
        <time>2020-12-29T09:39:10.000Z</time>
      </trkpt>
      <trkpt lat="47.70266" lon="-3.39378">
        <ele>-80.49406</ele>
        <time>2020-12-29T09:39:13.000Z</time>
      </trkpt>
      <trkpt lat="47.70262" lon="-3.39375">
        <ele>-80.395605</ele>
        <time>2020-12-29T09:39:14.000Z</time>
      </trkpt>
      <trkpt lat="47.7025" lon="-3.39366">
        <ele>-80.072219</ele>
        <time>2020-12-29T09:39:17.000Z</time>
      </trkpt>
      <trkpt lat="47.70242" lon="-3.39357">
        <ele>-79.852144</ele>
        <time>2020-12-29T09:39:19.000Z</time>
      </trkpt>
      <trkpt lat="47.70238" lon="-3.39353">
        <ele>-79.75105</ele>
        <time>2020-12-29T09:39:20.000Z</time>
      </trkpt>
      <trkpt lat="47.70236" lon="-3.39348">
        <ele>-79.659553</ele>
        <time>2020-12-29T09:39:21.000Z</time>
      </trkpt>
      <trkpt lat="47.70235" lon="-3.39342">
        <ele>-79.566147</ele>
        <time>2020-12-29T09:39:22.000Z</time>
      </trkpt>
      <trkpt lat="47.70233" lon="-3.39329">
        <ele>-79.346709</ele>
        <time>2020-12-29T09:39:24.000Z</time>
      </trkpt>
      <trkpt lat="47.70227" lon="-3.39317">
        <ele>-79.120084</ele>
        <time>2020-12-29T09:39:26.000Z</time>
      </trkpt>
      <trkpt lat="47.7022" lon="-3.39306">
        <ele>-78.887413</ele>
        <time>2020-12-29T09:39:28.000Z</time>
      </trkpt>
      <trkpt lat="47.70216" lon="-3.39294">
        <ele>-78.67903</ele>
        <time>2020-12-29T09:39:30.000Z</time>
      </trkpt>
      <trkpt lat="47.70212" lon="-3.39274">
        <ele>-78.358732</ele>
        <time>2020-12-29T09:39:33.000Z</time>
      </trkpt>
      <trkpt lat="47.70208" lon="-3.39261">
        <ele>-78.138105</ele>
        <time>2020-12-29T09:39:35.000Z</time>
      </trkpt>
      <trkpt lat="47.70206" lon="-3.39253">
        <ele>-78.014669</ele>
        <time>2020-12-29T09:39:36.000Z</time>
      </trkpt>
      <trkpt lat="47.70206" lon="-3.39245">
        <ele>-77.886233</ele>
        <time>2020-12-29T09:39:37.000Z</time>
      </trkpt>
      <trkpt lat="47.70206" lon="-3.39228">
        <ele>-77.621007</ele>
        <time>2020-12-29T09:39:39.000Z</time>
      </trkpt>
      <trkpt lat="47.70206" lon="-3.39211">
        <ele>-77.349585</ele>
        <time>2020-12-29T09:39:41.000Z</time>
      </trkpt>
      <trkpt lat="47.70205" lon="-3.39184">
        <ele>-77.435311</ele>
        <time>2020-12-29T09:39:44.000Z</time>
      </trkpt>
      <trkpt lat="47.70204" lon="-3.39176">
        <ele>-77.486442</ele>
        <time>2020-12-29T09:39:45.000Z</time>
      </trkpt>
      <trkpt lat="47.702" lon="-3.39153">
        <ele>-77.631443</ele>
        <time>2020-12-29T09:39:48.000Z</time>
      </trkpt>
      <trkpt lat="47.70197" lon="-3.39122">
        <ele>-77.814581</ele>
        <time>2020-12-29T09:39:52.000Z</time>
      </trkpt>
      <trkpt lat="47.70197" lon="-3.39106">
        <ele>-77.912565</ele>
        <time>2020-12-29T09:39:54.000Z</time>
      </trkpt>
      <trkpt lat="47.70202" lon="-3.39052">
        <ele>-78.241073</ele>
        <time>2020-12-29T09:40:00.000Z</time>
      </trkpt>
      <trkpt lat="47.70213" lon="-3.39006">
        <ele>-78.53251</ele>
        <time>2020-12-29T09:40:05.000Z</time>
      </trkpt>
      <trkpt lat="47.70215" lon="-3.38997">
        <ele>-78.59358</ele>
        <time>2020-12-29T09:40:06.000Z</time>
      </trkpt>
      <trkpt lat="47.70236" lon="-3.38943">
        <ele>-78.842009</ele>
        <time>2020-12-29T09:40:12.000Z</time>
      </trkpt>
      <trkpt lat="47.70241" lon="-3.38935">
        <ele>-78.781</ele>
        <time>2020-12-29T09:40:13.000Z</time>
      </trkpt>
      <trkpt lat="47.70245" lon="-3.38927">
        <ele>-78.719153</ele>
        <time>2020-12-29T09:40:14.000Z</time>
      </trkpt>
      <trkpt lat="47.70268" lon="-3.38894">
        <ele>-78.44145</ele>
        <time>2020-12-29T09:40:19.000Z</time>
      </trkpt>
      <trkpt lat="47.70298" lon="-3.38864">
        <ele>-78.120409</ele>
        <time>2020-12-29T09:40:25.000Z</time>
      </trkpt>
      <trkpt lat="47.70308" lon="-3.38856">
        <ele>-78.017331</ele>
        <time>2020-12-29T09:40:27.000Z</time>
      </trkpt>
      <trkpt lat="47.70333" lon="-3.38836">
        <ele>-77.771493</ele>
        <time>2020-12-29T09:40:32.000Z</time>
      </trkpt>
      <trkpt lat="47.70359" lon="-3.38819">
        <ele>-77.520149</ele>
        <time>2020-12-29T09:40:37.000Z</time>
      </trkpt>
      <trkpt lat="47.7037" lon="-3.38812">
        <ele>-77.418679</ele>
        <time>2020-12-29T09:40:39.000Z</time>
      </trkpt>
      <trkpt lat="47.70384" lon="-3.38801">
        <ele>-77.255374</ele>
        <time>2020-12-29T09:40:42.000Z</time>
      </trkpt>
      <trkpt lat="47.70392" lon="-3.38788">
        <ele>-77.113505</ele>
        <time>2020-12-29T09:40:44.000Z</time>
      </trkpt>
      <trkpt lat="47.70395" lon="-3.38781">
        <ele>-77.042408</ele>
        <time>2020-12-29T09:40:45.000Z</time>
      </trkpt>
      <trkpt lat="47.70412" lon="-3.38734">
        <ele>-76.605456</ele>
        <time>2020-12-29T09:40:51.000Z</time>
      </trkpt>
      <trkpt lat="47.70415" lon="-3.38726">
        <ele>-76.532993</ele>
        <time>2020-12-29T09:40:52.000Z</time>
      </trkpt>
      <trkpt lat="47.70423" lon="-3.38694">
        <ele>-76.254351</ele>
        <time>2020-12-29T09:40:56.000Z</time>
      </trkpt>
      <trkpt lat="47.7043" lon="-3.38662">
        <ele>-75.981175</ele>
        <time>2020-12-29T09:41:00.000Z</time>
      </trkpt>
      <trkpt lat="47.70433" lon="-3.38646">
        <ele>-75.848153</ele>
        <time>2020-12-29T09:41:02.000Z</time>
      </trkpt>
      <trkpt lat="47.70439" lon="-3.38625">
        <ele>-75.663593</ele>
        <time>2020-12-29T09:41:05.000Z</time>
      </trkpt>
      <trkpt lat="47.7044" lon="-3.38618">
        <ele>-75.602258</ele>
        <time>2020-12-29T09:41:06.000Z</time>
      </trkpt>
      <trkpt lat="47.70439" lon="-3.38593">
        <ele>-75.401431</ele>
        <time>2020-12-29T09:41:09.000Z</time>
      </trkpt>
      <trkpt lat="47.70438" lon="-3.38584">
        <ele>-75.327387</ele>
        <time>2020-12-29T09:41:10.000Z</time>
      </trkpt>
      <trkpt lat="47.70435" lon="-3.38576">
        <ele>-75.251725</ele>
        <time>2020-12-29T09:41:11.000Z</time>
      </trkpt>
      <trkpt lat="47.70427" lon="-3.38561">
        <ele>-75.209566</ele>
        <time>2020-12-29T09:41:13.000Z</time>
      </trkpt>
      <trkpt lat="47.70421" lon="-3.38555">
        <ele>-75.325507</ele>
        <time>2020-12-29T09:41:14.000Z</time>
      </trkpt>
      <trkpt lat="47.70416" lon="-3.38549">
        <ele>-75.443815</ele>
        <time>2020-12-29T09:41:15.000Z</time>
      </trkpt>
      <trkpt lat="47.70404" lon="-3.38538">
        <ele>-75.674664</ele>
        <time>2020-12-29T09:41:17.000Z</time>
      </trkpt>
      <trkpt lat="47.704" lon="-3.38532">
        <ele>-75.77991</ele>
        <time>2020-12-29T09:41:18.000Z</time>
      </trkpt>
      <trkpt lat="47.70394" lon="-3.3852">
        <ele>-75.956621</ele>
        <time>2020-12-29T09:41:20.000Z</time>
      </trkpt>
      <trkpt lat="47.70394" lon="-3.38513">
        <ele>-76.035608</ele>
        <time>2020-12-29T09:41:21.000Z</time>
      </trkpt>
      <trkpt lat="47.70401" lon="-3.38493">
        <ele>-76.290961</ele>
        <time>2020-12-29T09:41:24.000Z</time>
      </trkpt>
      <trkpt lat="47.70402" lon="-3.38475">
        <ele>-76.507903</ele>
        <time>2020-12-29T09:41:27.000Z</time>
      </trkpt>
      <trkpt lat="47.70401" lon="-3.38458">
        <ele>-76.699028</ele>
        <time>2020-12-29T09:41:30.000Z</time>
      </trkpt>
      <trkpt lat="47.70416" lon="-3.38439">
        <ele>-77.032521</ele>
        <time>2020-12-29T09:41:34.000Z</time>
      </trkpt>
      <trkpt lat="47.70421" lon="-3.38434">
        <ele>-77.133278</ele>
        <time>2020-12-29T09:41:35.000Z</time>
      </trkpt>
      <trkpt lat="47.70436" lon="-3.38418">
        <ele>-77.451426</ele>
        <time>2020-12-29T09:41:38.000Z</time>
      </trkpt>
      <trkpt lat="47.70456" lon="-3.38397">
        <ele>-77.877495</ele>
        <time>2020-12-29T09:41:42.000Z</time>
      </trkpt>
      <trkpt lat="47.70477" lon="-3.38373">
        <ele>-78.076298</ele>
        <time>2020-12-29T09:41:47.000Z</time>
      </trkpt>
      <trkpt lat="47.70479" lon="-3.38355">
        <ele>-77.769137</ele>
        <time>2020-12-29T09:41:50.000Z</time>
      </trkpt>
      <trkpt lat="47.70476" lon="-3.3835">
        <ele>-77.66375</ele>
        <time>2020-12-29T09:41:51.000Z</time>
      </trkpt>
      <trkpt lat="47.70475" lon="-3.38345">
        <ele>-77.563276</ele>
        <time>2020-12-29T09:41:52.000Z</time>
      </trkpt>
      <trkpt lat="47.70477" lon="-3.38334">
        <ele>-77.368621</ele>
        <time>2020-12-29T09:41:54.000Z</time>
      </trkpt>
      <trkpt lat="47.70488" lon="-3.38327">
        <ele>-77.059892</ele>
        <time>2020-12-29T09:41:57.000Z</time>
      </trkpt>
      <trkpt lat="47.70499" lon="-3.38329">
        <ele>-76.787661</ele>
        <time>2020-12-29T09:41:59.000Z</time>
      </trkpt>
      <trkpt lat="47.70517" lon="-3.3833">
        <ele>-76.329852</ele>
        <time>2020-12-29T09:42:02.000Z</time>
      </trkpt>
      <trkpt lat="47.70531" lon="-3.38331">
        <ele>-75.947352</ele>
        <time>2020-12-29T09:42:05.000Z</time>
      </trkpt>
      <trkpt lat="47.70535" lon="-3.3833">
        <ele>-75.852445</ele>
        <time>2020-12-29T09:42:06.000Z</time>
      </trkpt>
      <trkpt lat="47.70538" lon="-3.38327">
        <ele>-75.760963</ele>
        <time>2020-12-29T09:42:07.000Z</time>
      </trkpt>
      <trkpt lat="47.70541" lon="-3.38324">
        <ele>-75.673785</ele>
        <time>2020-12-29T09:42:08.000Z</time>
      </trkpt>
      <trkpt lat="47.70543" lon="-3.38321">
        <ele>-75.59486</ele>
        <time>2020-12-29T09:42:09.000Z</time>
      </trkpt>
      <trkpt lat="47.70545" lon="-3.38318">
        <ele>-75.518164</ele>
        <time>2020-12-29T09:42:10.000Z</time>
      </trkpt>
      <trkpt lat="47.70547" lon="-3.38311">
        <ele>-75.385483</ele>
        <time>2020-12-29T09:42:12.000Z</time>
      </trkpt>
      <trkpt lat="47.70548" lon="-3.38302">
        <ele>-75.226528</ele>
        <time>2020-12-29T09:42:14.000Z</time>
      </trkpt>
      <trkpt lat="47.70549" lon="-3.38296">
        <ele>-75.128668</ele>
        <time>2020-12-29T09:42:15.000Z</time>
      </trkpt>
      <trkpt lat="47.70549" lon="-3.38284">
        <ele>-74.906178</ele>
        <time>2020-12-29T09:42:17.000Z</time>
      </trkpt>
      <trkpt lat="47.70549" lon="-3.38277">
        <ele>-74.792167</ele>
        <time>2020-12-29T09:42:18.000Z</time>
      </trkpt>
      <trkpt lat="47.70554" lon="-3.3826">
        <ele>-74.470199</ele>
        <time>2020-12-29T09:42:21.000Z</time>
      </trkpt>
      <trkpt lat="47.70559" lon="-3.38237">
        <ele>-74.047737</ele>
        <time>2020-12-29T09:42:26.000Z</time>
      </trkpt>
      <trkpt lat="47.70566" lon="-3.38226">
        <ele>-73.800677</ele>
        <time>2020-12-29T09:42:29.000Z</time>
      </trkpt>
      <trkpt lat="47.70576" lon="-3.38231">
        <ele>-73.659489</ele>
        <time>2020-12-29T09:42:32.000Z</time>
      </trkpt>
      <trkpt lat="47.7058" lon="-3.38234">
        <ele>-73.759086</ele>
        <time>2020-12-29T09:42:33.000Z</time>
      </trkpt>
      <trkpt lat="47.70583" lon="-3.38238">
        <ele>-73.858159</ele>
        <time>2020-12-29T09:42:34.000Z</time>
      </trkpt>
      <trkpt lat="47.70587" lon="-3.38242">
        <ele>-73.970306</ele>
        <time>2020-12-29T09:42:35.000Z</time>
      </trkpt>
      <trkpt lat="47.70599" lon="-3.38253">
        <ele>-74.294439</ele>
        <time>2020-12-29T09:42:38.000Z</time>
      </trkpt>
      <trkpt lat="47.70602" lon="-3.38256">
        <ele>-74.383157</ele>
        <time>2020-12-29T09:42:39.000Z</time>
      </trkpt>
      <trkpt lat="47.70609" lon="-3.38255">
        <ele>-74.542986</ele>
        <time>2020-12-29T09:42:41.000Z</time>
      </trkpt>
      <trkpt lat="47.70616" lon="-3.38246">
        <ele>-74.749596</ele>
        <time>2020-12-29T09:42:44.000Z</time>
      </trkpt>
      <trkpt lat="47.70617" lon="-3.38243">
        <ele>-74.811131</ele>
        <time>2020-12-29T09:42:45.000Z</time>
      </trkpt>
      <trkpt lat="47.70625" lon="-3.38227">
        <ele>-75.111334</ele>
        <time>2020-12-29T09:42:49.000Z</time>
      </trkpt>
      <trkpt lat="47.70629" lon="-3.38224">
        <ele>-75.212981</ele>
        <time>2020-12-29T09:42:50.000Z</time>
      </trkpt>
      <trkpt lat="47.70638" lon="-3.38217">
        <ele>-75.463904</ele>
        <time>2020-12-29T09:42:52.000Z</time>
      </trkpt>
      <trkpt lat="47.70644" lon="-3.38213">
        <ele>-75.627954</ele>
        <time>2020-12-29T09:42:53.000Z</time>
      </trkpt>
      <trkpt lat="47.70658" lon="-3.38206">
        <ele>-75.953526</ele>
        <time>2020-12-29T09:42:55.000Z</time>
      </trkpt>
      <trkpt lat="47.7068" lon="-3.38197">
        <ele>-76.491165</ele>
        <time>2020-12-29T09:42:59.000Z</time>
      </trkpt>
      <trkpt lat="47.70699" lon="-3.38187">
        <ele>-76.969141</ele>
        <time>2020-12-29T09:43:03.000Z</time>
      </trkpt>
      <trkpt lat="47.70705" lon="-3.38184">
        <ele>-77.122528</ele>
        <time>2020-12-29T09:43:04.000Z</time>
      </trkpt>
      <trkpt lat="47.70718" lon="-3.38178">
        <ele>-77.440924</ele>
        <time>2020-12-29T09:43:06.000Z</time>
      </trkpt>
      <trkpt lat="47.70743" lon="-3.38163">
        <ele>-77.917751</ele>
        <time>2020-12-29T09:43:10.000Z</time>
      </trkpt>
      <trkpt lat="47.70754" lon="-3.38153">
        <ele>-78.041931</ele>
        <time>2020-12-29T09:43:12.000Z</time>
      </trkpt>
      <trkpt lat="47.70763" lon="-3.38141">
        <ele>-78.157178</ele>
        <time>2020-12-29T09:43:14.000Z</time>
      </trkpt>
      <trkpt lat="47.70782" lon="-3.38109">
        <ele>-78.432824</ele>
        <time>2020-12-29T09:43:19.000Z</time>
      </trkpt>
      <trkpt lat="47.70786" lon="-3.38103">
        <ele>-78.488105</ele>
        <time>2020-12-29T09:43:20.000Z</time>
      </trkpt>
      <trkpt lat="47.70805" lon="-3.38071">
        <ele>-78.765362</ele>
        <time>2020-12-29T09:43:25.000Z</time>
      </trkpt>
      <trkpt lat="47.70828" lon="-3.3802">
        <ele>-79.167271</ele>
        <time>2020-12-29T09:43:32.000Z</time>
      </trkpt>
      <trkpt lat="47.70831" lon="-3.38012">
        <ele>-79.226129</ele>
        <time>2020-12-29T09:43:33.000Z</time>
      </trkpt>
      <trkpt lat="47.70838" lon="-3.37987">
        <ele>-79.398088</ele>
        <time>2020-12-29T09:43:36.000Z</time>
      </trkpt>
      <trkpt lat="47.70839" lon="-3.37979">
        <ele>-79.452561</ele>
        <time>2020-12-29T09:43:37.000Z</time>
      </trkpt>
      <trkpt lat="47.70851" lon="-3.37932">
        <ele>-79.500561</ele>
        <time>2020-12-29T09:43:43.000Z</time>
      </trkpt>
      <trkpt lat="47.70861" lon="-3.37918">
        <ele>-79.478813</ele>
        <time>2020-12-29T09:43:46.000Z</time>
      </trkpt>
      <trkpt lat="47.70878" lon="-3.37918">
        <ele>-79.448751</ele>
        <time>2020-12-29T09:43:50.000Z</time>
      </trkpt>
      <trkpt lat="47.70897" lon="-3.37931">
        <ele>-79.414499</ele>
        <time>2020-12-29T09:43:54.000Z</time>
      </trkpt>
      <trkpt lat="47.709" lon="-3.37938">
        <ele>-79.404706</ele>
        <time>2020-12-29T09:43:55.000Z</time>
      </trkpt>
      <trkpt lat="47.70904" lon="-3.37944">
        <ele>-79.394838</ele>
        <time>2020-12-29T09:43:56.000Z</time>
      </trkpt>
      <trkpt lat="47.70915" lon="-3.37951">
        <ele>-79.37563</ele>
        <time>2020-12-29T09:43:58.000Z</time>
      </trkpt>
      <trkpt lat="47.70932" lon="-3.37947">
        <ele>-79.345421</ele>
        <time>2020-12-29T09:44:01.000Z</time>
      </trkpt>
      <trkpt lat="47.70947" lon="-3.37928">
        <ele>-79.313864</ele>
        <time>2020-12-29T09:44:04.000Z</time>
      </trkpt>
      <trkpt lat="47.70951" lon="-3.37921">
        <ele>-79.303155</ele>
        <time>2020-12-29T09:44:05.000Z</time>
      </trkpt>
      <trkpt lat="47.70969" lon="-3.37888">
        <ele>-79.255105</ele>
        <time>2020-12-29T09:44:10.000Z</time>
      </trkpt>
      <trkpt lat="47.70972" lon="-3.37882">
        <ele>-79.246736</ele>
        <time>2020-12-29T09:44:11.000Z</time>
      </trkpt>
      <trkpt lat="47.70974" lon="-3.3787">
        <ele>-79.212144</ele>
        <time>2020-12-29T09:44:13.000Z</time>
      </trkpt>
      <trkpt lat="47.70966" lon="-3.3785">
        <ele>-79.120624</ele>
        <time>2020-12-29T09:44:16.000Z</time>
      </trkpt>
      <trkpt lat="47.70963" lon="-3.37844">
        <ele>-79.089163</ele>
        <time>2020-12-29T09:44:17.000Z</time>
      </trkpt>
      <trkpt lat="47.70949" lon="-3.37817">
        <ele>-78.958204</ele>
        <time>2020-12-29T09:44:21.000Z</time>
      </trkpt>
      <trkpt lat="47.70947" lon="-3.37809">
        <ele>-78.926471</ele>
        <time>2020-12-29T09:44:22.000Z</time>
      </trkpt>
      <trkpt lat="47.70936" lon="-3.37761">
        <ele>-78.725826</ele>
        <time>2020-12-29T09:44:28.000Z</time>
      </trkpt>
      <trkpt lat="47.70933" lon="-3.37745">
        <ele>-78.661728</ele>
        <time>2020-12-29T09:44:30.000Z</time>
      </trkpt>
      <trkpt lat="47.70935" lon="-3.37729">
        <ele>-78.596236</ele>
        <time>2020-12-29T09:44:32.000Z</time>
      </trkpt>
      <trkpt lat="47.70946" lon="-3.37701">
        <ele>-78.467278</ele>
        <time>2020-12-29T09:44:36.000Z</time>
      </trkpt>
      <trkpt lat="47.70968" lon="-3.37655">
        <ele>-78.24797</ele>
        <time>2020-12-29T09:44:43.000Z</time>
      </trkpt>
      <trkpt lat="47.70994" lon="-3.376">
        <ele>-78.171665</ele>
        <time>2020-12-29T09:44:51.000Z</time>
      </trkpt>
      <trkpt lat="47.71014" lon="-3.37572">
        <ele>-78.158648</ele>
        <time>2020-12-29T09:44:56.000Z</time>
      </trkpt>
      <trkpt lat="47.71035" lon="-3.37559">
        <ele>-78.147676</ele>
        <time>2020-12-29T09:45:00.000Z</time>
      </trkpt>
      <trkpt lat="47.71041" lon="-3.37559">
        <ele>-78.144832</ele>
        <time>2020-12-29T09:45:01.000Z</time>
      </trkpt>
      <trkpt lat="47.71047" lon="-3.37559">
        <ele>-78.141901</ele>
        <time>2020-12-29T09:45:02.000Z</time>
      </trkpt>
      <trkpt lat="47.71079" lon="-3.37559">
        <ele>-78.126379</ele>
        <time>2020-12-29T09:45:07.000Z</time>
      </trkpt>
      <trkpt lat="47.71105" lon="-3.37568">
        <ele>-78.113684</ele>
        <time>2020-12-29T09:45:11.000Z</time>
      </trkpt>
      <trkpt lat="47.71111" lon="-3.37573">
        <ele>-78.110396</ele>
        <time>2020-12-29T09:45:12.000Z</time>
      </trkpt>
      <trkpt lat="47.71128" lon="-3.37587">
        <ele>-78.082362</ele>
        <time>2020-12-29T09:45:15.000Z</time>
      </trkpt>
      <trkpt lat="47.71138" lon="-3.37596">
        <ele>-77.973915</ele>
        <time>2020-12-29T09:45:17.000Z</time>
      </trkpt>
      <trkpt lat="47.7116" lon="-3.37611">
        <ele>-77.769705</ele>
        <time>2020-12-29T09:45:21.000Z</time>
      </trkpt>
      <trkpt lat="47.71165" lon="-3.3761">
        <ele>-77.722562</ele>
        <time>2020-12-29T09:45:22.000Z</time>
      </trkpt>
      <trkpt lat="47.7118" lon="-3.37598">
        <ele>-77.572644</ele>
        <time>2020-12-29T09:45:25.000Z</time>
      </trkpt>
      <trkpt lat="47.71195" lon="-3.37584">
        <ele>-77.420797</ele>
        <time>2020-12-29T09:45:28.000Z</time>
      </trkpt>
      <trkpt lat="47.71214" lon="-3.37566">
        <ele>-77.222601</ele>
        <time>2020-12-29T09:45:32.000Z</time>
      </trkpt>
      <trkpt lat="47.71234" lon="-3.37544">
        <ele>-77.008274</ele>
        <time>2020-12-29T09:45:37.000Z</time>
      </trkpt>
      <trkpt lat="47.71236" lon="-3.37534">
        <ele>-76.946144</ele>
        <time>2020-12-29T09:45:39.000Z</time>
      </trkpt>
      <trkpt lat="47.71237" lon="-3.37529">
        <ele>-76.916423</ele>
        <time>2020-12-29T09:45:40.000Z</time>
      </trkpt>
      <trkpt lat="47.71246" lon="-3.37513">
        <ele>-76.796483</ele>
        <time>2020-12-29T09:45:44.000Z</time>
      </trkpt>
      <trkpt lat="47.71264" lon="-3.37493">
        <ele>-76.598229</ele>
        <time>2020-12-29T09:45:50.000Z</time>
      </trkpt>
      <trkpt lat="47.71282" lon="-3.37471">
        <ele>-76.699631</ele>
        <time>2020-12-29T09:45:56.000Z</time>
      </trkpt>
      <trkpt lat="47.713" lon="-3.37452">
        <ele>-76.933345</ele>
        <time>2020-12-29T09:46:01.000Z</time>
      </trkpt>
      <trkpt lat="47.71306" lon="-3.37442">
        <ele>-77.027938</ele>
        <time>2020-12-29T09:46:03.000Z</time>
      </trkpt>
      <trkpt lat="47.71323" lon="-3.37411">
        <ele>-77.300336</ele>
        <time>2020-12-29T09:46:09.000Z</time>
      </trkpt>
      <trkpt lat="47.7133" lon="-3.37394">
        <ele>-77.438183</ele>
        <time>2020-12-29T09:46:12.000Z</time>
      </trkpt>
      <trkpt lat="47.71336" lon="-3.37382">
        <ele>-77.541726</ele>
        <time>2020-12-29T09:46:14.000Z</time>
      </trkpt>
      <trkpt lat="47.71354" lon="-3.37345">
        <ele>-77.853469</ele>
        <time>2020-12-29T09:46:20.000Z</time>
      </trkpt>
      <trkpt lat="47.71356" lon="-3.37339">
        <ele>-77.903832</ele>
        <time>2020-12-29T09:46:21.000Z</time>
      </trkpt>
      <trkpt lat="47.71359" lon="-3.37332">
        <ele>-77.95708</ele>
        <time>2020-12-29T09:46:22.000Z</time>
      </trkpt>
      <trkpt lat="47.71377" lon="-3.37296">
        <ele>-78.266776</ele>
        <time>2020-12-29T09:46:28.000Z</time>
      </trkpt>
      <trkpt lat="47.71404" lon="-3.37239">
        <ele>-78.427975</ele>
        <time>2020-12-29T09:46:37.000Z</time>
      </trkpt>
      <trkpt lat="47.71412" lon="-3.37222">
        <ele>-78.445628</ele>
        <time>2020-12-29T09:46:40.000Z</time>
      </trkpt>
      <trkpt lat="47.71416" lon="-3.37214">
        <ele>-78.454346</ele>
        <time>2020-12-29T09:46:42.000Z</time>
      </trkpt>
      <trkpt lat="47.71426" lon="-3.37216">
        <ele>-78.467657</ele>
        <time>2020-12-29T09:46:46.000Z</time>
      </trkpt>
      <trkpt lat="47.71439" lon="-3.37225">
        <ele>-78.487066</ele>
        <time>2020-12-29T09:46:49.000Z</time>
      </trkpt>
      <trkpt lat="47.71444" lon="-3.37229">
        <ele>-78.493644</ele>
        <time>2020-12-29T09:46:50.000Z</time>
      </trkpt>
      <trkpt lat="47.71464" lon="-3.37244">
        <ele>-78.523496</ele>
        <time>2020-12-29T09:46:55.000Z</time>
      </trkpt>
      <trkpt lat="47.71488" lon="-3.37262">
        <ele>-78.557393</ele>
        <time>2020-12-29T09:47:02.000Z</time>
      </trkpt>
      <trkpt lat="47.71492" lon="-3.37265">
        <ele>-78.56447</ele>
        <time>2020-12-29T09:47:04.000Z</time>
      </trkpt>
      <trkpt lat="47.71493" lon="-3.37273">
        <ele>-78.571398</ele>
        <time>2020-12-29T09:47:06.000Z</time>
      </trkpt>
      <trkpt lat="47.71488" lon="-3.37287">
        <ele>-78.584668</ele>
        <time>2020-12-29T09:47:09.000Z</time>
      </trkpt>
      <trkpt lat="47.71485" lon="-3.37298">
        <ele>-78.594979</ele>
        <time>2020-12-29T09:47:11.000Z</time>
      </trkpt>
      <trkpt lat="47.71487" lon="-3.37315">
        <ele>-78.610285</ele>
        <time>2020-12-29T09:47:14.000Z</time>
      </trkpt>
      <trkpt lat="47.71499" lon="-3.3733">
        <ele>-78.799375</ele>
        <time>2020-12-29T09:47:17.000Z</time>
      </trkpt>
      <trkpt lat="47.71504" lon="-3.37332">
        <ele>-78.88222</ele>
        <time>2020-12-29T09:47:18.000Z</time>
      </trkpt>
      <trkpt lat="47.71519" lon="-3.37334">
        <ele>-79.124933</ele>
        <time>2020-12-29T09:47:21.000Z</time>
      </trkpt>
      <trkpt lat="47.71557" lon="-3.37331">
        <ele>-79.725778</ele>
        <time>2020-12-29T09:47:28.000Z</time>
      </trkpt>
      <trkpt lat="47.71596" lon="-3.37325">
        <ele>-80.354841</ele>
        <time>2020-12-29T09:47:35.000Z</time>
      </trkpt>
      <trkpt lat="47.71602" lon="-3.37325">
        <ele>-80.449085</ele>
        <time>2020-12-29T09:47:36.000Z</time>
      </trkpt>
      <trkpt lat="47.71643" lon="-3.3732">
        <ele>-81.102276</ele>
        <time>2020-12-29T09:47:43.000Z</time>
      </trkpt>
      <trkpt lat="47.71693" lon="-3.37313">
        <ele>-81.460616</ele>
        <time>2020-12-29T09:47:52.000Z</time>
      </trkpt>
      <trkpt lat="47.71704" lon="-3.37315">
        <ele>-81.453684</ele>
        <time>2020-12-29T09:47:54.000Z</time>
      </trkpt>
      <trkpt lat="47.71715" lon="-3.37316">
        <ele>-81.446446</ele>
        <time>2020-12-29T09:47:56.000Z</time>
      </trkpt>
      <trkpt lat="47.71742" lon="-3.37327">
        <ele>-81.427438</ele>
        <time>2020-12-29T09:48:01.000Z</time>
      </trkpt>
      <trkpt lat="47.71777" lon="-3.37341">
        <ele>-81.402844</ele>
        <time>2020-12-29T09:48:08.000Z</time>
      </trkpt>
      <trkpt lat="47.71803" lon="-3.37353">
        <ele>-81.384745</ele>
        <time>2020-12-29T09:48:13.000Z</time>
      </trkpt>
      <trkpt lat="47.71813" lon="-3.37356">
        <ele>-81.377767</ele>
        <time>2020-12-29T09:48:15.000Z</time>
      </trkpt>
      <trkpt lat="47.71818" lon="-3.37357">
        <ele>-81.374539</ele>
        <time>2020-12-29T09:48:16.000Z</time>
      </trkpt>
      <trkpt lat="47.71833" lon="-3.37368">
        <ele>-81.363358</ele>
        <time>2020-12-29T09:48:19.000Z</time>
      </trkpt>
      <trkpt lat="47.71843" lon="-3.37374">
        <ele>-81.347281</ele>
        <time>2020-12-29T09:48:21.000Z</time>
      </trkpt>
      <trkpt lat="47.71857" lon="-3.37382">
        <ele>-81.301315</ele>
        <time>2020-12-29T09:48:24.000Z</time>
      </trkpt>
      <trkpt lat="47.71865" lon="-3.37386">
        <ele>-81.27356</ele>
        <time>2020-12-29T09:48:26.000Z</time>
      </trkpt>
      <trkpt lat="47.71874" lon="-3.37392">
        <ele>-81.24436</ele>
        <time>2020-12-29T09:48:28.000Z</time>
      </trkpt>
      <trkpt lat="47.71878" lon="-3.37397">
        <ele>-81.228516</ele>
        <time>2020-12-29T09:48:29.000Z</time>
      </trkpt>
      <trkpt lat="47.7189" lon="-3.37412">
        <ele>-81.178398</ele>
        <time>2020-12-29T09:48:32.000Z</time>
      </trkpt>
      <trkpt lat="47.719" lon="-3.37416">
        <ele>-81.14752</ele>
        <time>2020-12-29T09:48:34.000Z</time>
      </trkpt>
      <trkpt lat="47.7191" lon="-3.37414">
        <ele>-81.114378</ele>
        <time>2020-12-29T09:48:36.000Z</time>
      </trkpt>
      <trkpt lat="47.71915" lon="-3.37414">
        <ele>-81.099941</ele>
        <time>2020-12-29T09:48:37.000Z</time>
      </trkpt>
      <trkpt lat="47.71919" lon="-3.37414">
        <ele>-81.085213</ele>
        <time>2020-12-29T09:48:38.000Z</time>
      </trkpt>
      <trkpt lat="47.71924" lon="-3.37415">
        <ele>-81.069996</ele>
        <time>2020-12-29T09:48:39.000Z</time>
      </trkpt>
      <trkpt lat="47.7194" lon="-3.37421">
        <ele>-81.020575</ele>
        <time>2020-12-29T09:48:42.000Z</time>
      </trkpt>
      <trkpt lat="47.71945" lon="-3.37424">
        <ele>-81.002571</ele>
        <time>2020-12-29T09:48:43.000Z</time>
      </trkpt>
      <trkpt lat="47.71955" lon="-3.37434">
        <ele>-80.965042</ele>
        <time>2020-12-29T09:48:45.000Z</time>
      </trkpt>
      <trkpt lat="47.7196" lon="-3.37438">
        <ele>-80.947591</ele>
        <time>2020-12-29T09:48:46.000Z</time>
      </trkpt>
      <trkpt lat="47.71975" lon="-3.3745">
        <ele>-80.894693</ele>
        <time>2020-12-29T09:48:49.000Z</time>
      </trkpt>
      <trkpt lat="47.71979" lon="-3.37453">
        <ele>-80.878034</ele>
        <time>2020-12-29T09:48:50.000Z</time>
      </trkpt>
      <trkpt lat="47.71989" lon="-3.37459">
        <ele>-80.845525</ele>
        <time>2020-12-29T09:48:52.000Z</time>
      </trkpt>
      <trkpt lat="47.71993" lon="-3.37462">
        <ele>-80.830445</ele>
        <time>2020-12-29T09:48:53.000Z</time>
      </trkpt>
      <trkpt lat="47.72008" lon="-3.3747">
        <ele>-80.773075</ele>
        <time>2020-12-29T09:48:56.000Z</time>
      </trkpt>
      <trkpt lat="47.72015" lon="-3.37475">
        <ele>-80.728777</ele>
        <time>2020-12-29T09:48:58.000Z</time>
      </trkpt>
      <trkpt lat="47.72027" lon="-3.37487">
        <ele>-80.652426</ele>
        <time>2020-12-29T09:49:01.000Z</time>
      </trkpt>
      <trkpt lat="47.72034" lon="-3.37495">
        <ele>-80.598618</ele>
        <time>2020-12-29T09:49:03.000Z</time>
      </trkpt>
      <trkpt lat="47.72051" lon="-3.37507">
        <ele>-80.497712</ele>
        <time>2020-12-29T09:49:07.000Z</time>
      </trkpt>
      <trkpt lat="47.72075" lon="-3.37525">
        <ele>-80.354021</ele>
        <time>2020-12-29T09:49:12.000Z</time>
      </trkpt>
      <trkpt lat="47.72084" lon="-3.37536">
        <ele>-80.285493</ele>
        <time>2020-12-29T09:49:14.000Z</time>
      </trkpt>
      <trkpt lat="47.72101" lon="-3.37549">
        <ele>-80.184879</ele>
        <time>2020-12-29T09:49:17.000Z</time>
      </trkpt>
      <trkpt lat="47.72134" lon="-3.37569">
        <ele>-79.987633</ele>
        <time>2020-12-29T09:49:23.000Z</time>
      </trkpt>
      <trkpt lat="47.7214" lon="-3.37573">
        <ele>-79.954781</ele>
        <time>2020-12-29T09:49:24.000Z</time>
      </trkpt>
      <trkpt lat="47.72154" lon="-3.37585">
        <ele>-79.861517</ele>
        <time>2020-12-29T09:49:27.000Z</time>
      </trkpt>
      <trkpt lat="47.72159" lon="-3.37589">
        <ele>-79.833671</ele>
        <time>2020-12-29T09:49:28.000Z</time>
      </trkpt>
      <trkpt lat="47.72169" lon="-3.37597">
        <ele>-79.827383</ele>
        <time>2020-12-29T09:49:30.000Z</time>
      </trkpt>
      <trkpt lat="47.72193" lon="-3.37617">
        <ele>-79.885515</ele>
        <time>2020-12-29T09:49:34.000Z</time>
      </trkpt>
      <trkpt lat="47.72199" lon="-3.37622">
        <ele>-79.901861</ele>
        <time>2020-12-29T09:49:35.000Z</time>
      </trkpt>
      <trkpt lat="47.72239" lon="-3.37654">
        <ele>-79.999254</ele>
        <time>2020-12-29T09:49:42.000Z</time>
      </trkpt>
      <trkpt lat="47.72244" lon="-3.37657">
        <ele>-80.010867</ele>
        <time>2020-12-29T09:49:43.000Z</time>
      </trkpt>
      <trkpt lat="47.72253" lon="-3.37662">
        <ele>-80.033543</ele>
        <time>2020-12-29T09:49:45.000Z</time>
      </trkpt>
      <trkpt lat="47.72258" lon="-3.37666">
        <ele>-80.04418</ele>
        <time>2020-12-29T09:49:46.000Z</time>
      </trkpt>
      <trkpt lat="47.72275" lon="-3.37682">
        <ele>-80.087867</ele>
        <time>2020-12-29T09:49:50.000Z</time>
      </trkpt>
      <trkpt lat="47.72283" lon="-3.37689">
        <ele>-80.109522</ele>
        <time>2020-12-29T09:49:52.000Z</time>
      </trkpt>
      <trkpt lat="47.72297" lon="-3.37699">
        <ele>-80.143034</ele>
        <time>2020-12-29T09:49:55.000Z</time>
      </trkpt>
      <trkpt lat="47.72306" lon="-3.37704">
        <ele>-80.164187</ele>
        <time>2020-12-29T09:49:57.000Z</time>
      </trkpt>
      <trkpt lat="47.72323" lon="-3.37714">
        <ele>-80.195081</ele>
        <time>2020-12-29T09:50:00.000Z</time>
      </trkpt>
      <trkpt lat="47.72329" lon="-3.37716">
        <ele>-80.144686</ele>
        <time>2020-12-29T09:50:01.000Z</time>
      </trkpt>
      <trkpt lat="47.72341" lon="-3.37716">
        <ele>-80.04641</ele>
        <time>2020-12-29T09:50:03.000Z</time>
      </trkpt>
      <trkpt lat="47.72366" lon="-3.3771">
        <ele>-79.841838</ele>
        <time>2020-12-29T09:50:07.000Z</time>
      </trkpt>
      <trkpt lat="47.72392" lon="-3.37705">
        <ele>-79.629395</ele>
        <time>2020-12-29T09:50:11.000Z</time>
      </trkpt>
      <trkpt lat="47.72405" lon="-3.37702">
        <ele>-79.519103</ele>
        <time>2020-12-29T09:50:13.000Z</time>
      </trkpt>
      <trkpt lat="47.72449" lon="-3.37683">
        <ele>-79.14922</ele>
        <time>2020-12-29T09:50:20.000Z</time>
      </trkpt>
      <trkpt lat="47.7246" lon="-3.37676">
        <ele>-79.05355</ele>
        <time>2020-12-29T09:50:22.000Z</time>
      </trkpt>
      <trkpt lat="47.72472" lon="-3.37669">
        <ele>-78.950787</ele>
        <time>2020-12-29T09:50:24.000Z</time>
      </trkpt>
      <trkpt lat="47.72485" lon="-3.37666">
        <ele>-78.842005</ele>
        <time>2020-12-29T09:50:26.000Z</time>
      </trkpt>
      <trkpt lat="47.72498" lon="-3.37663">
        <ele>-78.743734</ele>
        <time>2020-12-29T09:50:28.000Z</time>
      </trkpt>
      <trkpt lat="47.72517" lon="-3.37658">
        <ele>-78.861039</ele>
        <time>2020-12-29T09:50:31.000Z</time>
      </trkpt>
      <trkpt lat="47.72564" lon="-3.3765">
        <ele>-79.138808</ele>
        <time>2020-12-29T09:50:38.000Z</time>
      </trkpt>
      <trkpt lat="47.72604" lon="-3.37641">
        <ele>-79.383655</ele>
        <time>2020-12-29T09:50:44.000Z</time>
      </trkpt>
      <trkpt lat="47.72618" lon="-3.37642">
        <ele>-79.465755</ele>
        <time>2020-12-29T09:50:46.000Z</time>
      </trkpt>
      <trkpt lat="47.72638" lon="-3.3765">
        <ele>-79.589826</ele>
        <time>2020-12-29T09:50:49.000Z</time>
      </trkpt>
      <trkpt lat="47.72658" lon="-3.37662">
        <ele>-79.716203</ele>
        <time>2020-12-29T09:50:52.000Z</time>
      </trkpt>
      <trkpt lat="47.72668" lon="-3.37674">
        <ele>-79.794996</ele>
        <time>2020-12-29T09:50:54.000Z</time>
      </trkpt>
      <trkpt lat="47.72678" lon="-3.37699">
        <ele>-79.876979</ele>
        <time>2020-12-29T09:50:57.000Z</time>
      </trkpt>
      <trkpt lat="47.72681" lon="-3.37708">
        <ele>-79.904796</ele>
        <time>2020-12-29T09:50:58.000Z</time>
      </trkpt>
      <trkpt lat="47.72695" lon="-3.37745">
        <ele>-80.017721</ele>
        <time>2020-12-29T09:51:02.000Z</time>
      </trkpt>
      <trkpt lat="47.72702" lon="-3.37762">
        <ele>-80.071918</ele>
        <time>2020-12-29T09:51:04.000Z</time>
      </trkpt>
      <trkpt lat="47.7273" lon="-3.3783">
        <ele>-80.288789</ele>
        <time>2020-12-29T09:51:12.000Z</time>
      </trkpt>
      <trkpt lat="47.72756" lon="-3.37898">
        <ele>-80.499471</ele>
        <time>2020-12-29T09:51:20.000Z</time>
      </trkpt>
      <trkpt lat="47.72764" lon="-3.37925">
        <ele>-80.486891</ele>
        <time>2020-12-29T09:51:23.000Z</time>
      </trkpt>
      <trkpt lat="47.72767" lon="-3.37945">
        <ele>-80.436922</ele>
        <time>2020-12-29T09:51:25.000Z</time>
      </trkpt>
      <trkpt lat="47.72766" lon="-3.37973">
        <ele>-80.367033</ele>
        <time>2020-12-29T09:51:28.000Z</time>
      </trkpt>
      <trkpt lat="47.72765" lon="-3.37982">
        <ele>-80.344542</ele>
        <time>2020-12-29T09:51:29.000Z</time>
      </trkpt>
      <trkpt lat="47.72763" lon="-3.38009">
        <ele>-80.277392</ele>
        <time>2020-12-29T09:51:32.000Z</time>
      </trkpt>
      <trkpt lat="47.72764" lon="-3.38034">
        <ele>-80.215784</ele>
        <time>2020-12-29T09:51:35.000Z</time>
      </trkpt>
      <trkpt lat="47.72766" lon="-3.38067">
        <ele>-80.132752</ele>
        <time>2020-12-29T09:51:39.000Z</time>
      </trkpt>
      <trkpt lat="47.72768" lon="-3.38074">
        <ele>-80.113066</ele>
        <time>2020-12-29T09:51:40.000Z</time>
      </trkpt>
      <trkpt lat="47.72783" lon="-3.38088">
        <ele>-80.049536</ele>
        <time>2020-12-29T09:51:43.000Z</time>
      </trkpt>
      <trkpt lat="47.72796" lon="-3.38092">
        <ele>-79.998768</ele>
        <time>2020-12-29T09:51:45.000Z</time>
      </trkpt>
      <trkpt lat="47.7281" lon="-3.38099">
        <ele>-79.943866</ele>
        <time>2020-12-29T09:51:47.000Z</time>
      </trkpt>
      <trkpt lat="47.72822" lon="-3.38108">
        <ele>-79.892764</ele>
        <time>2020-12-29T09:51:49.000Z</time>
      </trkpt>
      <trkpt lat="47.72834" lon="-3.38116">
        <ele>-79.393116</ele>
        <time>2020-12-29T09:51:51.000Z</time>
      </trkpt>
      <trkpt lat="47.72857" lon="-3.3812">
        <ele>-77.221935</ele>
        <time>2020-12-29T09:51:55.000Z</time>
      </trkpt>
      <trkpt lat="47.72863" lon="-3.38121">
        <ele>-76.665973</ele>
        <time>2020-12-29T09:51:56.000Z</time>
      </trkpt>
      <trkpt lat="47.72875" lon="-3.38126">
        <ele>-75.553563</ele>
        <time>2020-12-29T09:51:58.000Z</time>
      </trkpt>
      <trkpt lat="47.72881" lon="-3.3813">
        <ele>-74.962332</ele>
        <time>2020-12-29T09:51:59.000Z</time>
      </trkpt>
      <trkpt lat="47.72902" lon="-3.38151">
        <ele>-72.664835</ele>
        <time>2020-12-29T09:52:03.000Z</time>
      </trkpt>
      <trkpt lat="47.72914" lon="-3.38169">
        <ele>-71.061772</ele>
        <time>2020-12-29T09:52:06.000Z</time>
      </trkpt>
      <trkpt lat="47.72927" lon="-3.38185">
        <ele>-69.538394</ele>
        <time>2020-12-29T09:52:09.000Z</time>
      </trkpt>
      <trkpt lat="47.72948" lon="-3.38203">
        <ele>-67.342284</ele>
        <time>2020-12-29T09:52:13.000Z</time>
      </trkpt>
      <trkpt lat="47.72952" lon="-3.38209">
        <ele>-66.790625</ele>
        <time>2020-12-29T09:52:14.000Z</time>
      </trkpt>
      <trkpt lat="47.72978" lon="-3.3825">
        <ele>-63.450412</ele>
        <time>2020-12-29T09:52:20.000Z</time>
      </trkpt>
      <trkpt lat="47.72985" lon="-3.38283">
        <ele>-64.696921</ele>
        <time>2020-12-29T09:52:24.000Z</time>
      </trkpt>
      <trkpt lat="47.72985" lon="-3.38298">
        <ele>-65.250979</ele>
        <time>2020-12-29T09:52:26.000Z</time>
      </trkpt>
      <trkpt lat="47.72984" lon="-3.38305">
        <ele>-65.506475</ele>
        <time>2020-12-29T09:52:27.000Z</time>
      </trkpt>
      <trkpt lat="47.72981" lon="-3.38319">
        <ele>-66.034741</ele>
        <time>2020-12-29T09:52:29.000Z</time>
      </trkpt>
      <trkpt lat="47.72979" lon="-3.38326">
        <ele>-66.304031</ele>
        <time>2020-12-29T09:52:30.000Z</time>
      </trkpt>
      <trkpt lat="47.72975" lon="-3.38342">
        <ele>-66.886616</ele>
        <time>2020-12-29T09:52:32.000Z</time>
      </trkpt>
      <trkpt lat="47.72973" lon="-3.3835">
        <ele>-67.19969</ele>
        <time>2020-12-29T09:52:33.000Z</time>
      </trkpt>
      <trkpt lat="47.7297" lon="-3.38358">
        <ele>-67.525693</ele>
        <time>2020-12-29T09:52:34.000Z</time>
      </trkpt>
      <trkpt lat="47.72968" lon="-3.38367">
        <ele>-67.864073</ele>
        <time>2020-12-29T09:52:35.000Z</time>
      </trkpt>
      <trkpt lat="47.72961" lon="-3.38404">
        <ele>-69.237706</ele>
        <time>2020-12-29T09:52:39.000Z</time>
      </trkpt>
      <trkpt lat="47.72959" lon="-3.38423">
        <ele>-69.903904</ele>
        <time>2020-12-29T09:52:41.000Z</time>
      </trkpt>
      <trkpt lat="47.72957" lon="-3.38449">
        <ele>-70.844508</ele>
        <time>2020-12-29T09:52:44.000Z</time>
      </trkpt>
      <trkpt lat="47.72956" lon="-3.38458">
        <ele>-71.144747</ele>
        <time>2020-12-29T09:52:45.000Z</time>
      </trkpt>
      <trkpt lat="47.72955" lon="-3.38466">
        <ele>-71.439622</ele>
        <time>2020-12-29T09:52:46.000Z</time>
      </trkpt>
      <trkpt lat="47.72959" lon="-3.3849">
        <ele>-72.305565</ele>
        <time>2020-12-29T09:52:49.000Z</time>
      </trkpt>
      <trkpt lat="47.72963" lon="-3.38497">
        <ele>-72.627588</ele>
        <time>2020-12-29T09:52:50.000Z</time>
      </trkpt>
      <trkpt lat="47.72972" lon="-3.38509">
        <ele>-73.095494</ele>
        <time>2020-12-29T09:52:52.000Z</time>
      </trkpt>
      <trkpt lat="47.72977" lon="-3.38515">
        <ele>-73.259998</ele>
        <time>2020-12-29T09:52:53.000Z</time>
      </trkpt>
      <trkpt lat="47.72988" lon="-3.38527">
        <ele>-73.597818</ele>
        <time>2020-12-29T09:52:55.000Z</time>
      </trkpt>
      <trkpt lat="47.72993" lon="-3.38532">
        <ele>-73.764212</ele>
        <time>2020-12-29T09:52:56.000Z</time>
      </trkpt>
      <trkpt lat="47.72999" lon="-3.38535">
        <ele>-73.931772</ele>
        <time>2020-12-29T09:52:57.000Z</time>
      </trkpt>
      <trkpt lat="47.73012" lon="-3.38544">
        <ele>-74.282805</ele>
        <time>2020-12-29T09:52:59.000Z</time>
      </trkpt>
      <trkpt lat="47.73023" lon="-3.38556">
        <ele>-74.635124</ele>
        <time>2020-12-29T09:53:01.000Z</time>
      </trkpt>
      <trkpt lat="47.73032" lon="-3.38572">
        <ele>-74.983695</ele>
        <time>2020-12-29T09:53:03.000Z</time>
      </trkpt>
      <trkpt lat="47.73036" lon="-3.3858">
        <ele>-75.162565</ele>
        <time>2020-12-29T09:53:04.000Z</time>
      </trkpt>
      <trkpt lat="47.73041" lon="-3.38588">
        <ele>-75.348949</ele>
        <time>2020-12-29T09:53:05.000Z</time>
      </trkpt>
      <trkpt lat="47.73054" lon="-3.38597">
        <ele>-75.716704</ele>
        <time>2020-12-29T09:53:07.000Z</time>
      </trkpt>
      <trkpt lat="47.73069" lon="-3.38602">
        <ele>-76.090326</ele>
        <time>2020-12-29T09:53:09.000Z</time>
      </trkpt>
      <trkpt lat="47.73076" lon="-3.38603">
        <ele>-76.277319</ele>
        <time>2020-12-29T09:53:10.000Z</time>
      </trkpt>
      <trkpt lat="47.7309" lon="-3.38606">
        <ele>-76.648577</ele>
        <time>2020-12-29T09:53:12.000Z</time>
      </trkpt>
      <trkpt lat="47.73098" lon="-3.38606">
        <ele>-76.831898</ele>
        <time>2020-12-29T09:53:13.000Z</time>
      </trkpt>
      <trkpt lat="47.73127" lon="-3.38605">
        <ele>-77.444519</ele>
        <time>2020-12-29T09:53:17.000Z</time>
      </trkpt>
      <trkpt lat="47.7317" lon="-3.38604">
        <ele>-76.67225</ele>
        <time>2020-12-29T09:53:24.000Z</time>
      </trkpt>
      <trkpt lat="47.73205" lon="-3.38599">
        <ele>-76.044282</ele>
        <time>2020-12-29T09:53:31.000Z</time>
      </trkpt>
      <trkpt lat="47.73209" lon="-3.38598">
        <ele>-75.965331</ele>
        <time>2020-12-29T09:53:32.000Z</time>
      </trkpt>
      <trkpt lat="47.73228" lon="-3.3859">
        <ele>-75.608749</ele>
        <time>2020-12-29T09:53:37.000Z</time>
      </trkpt>
      <trkpt lat="47.73232" lon="-3.38589">
        <ele>-75.540464</ele>
        <time>2020-12-29T09:53:38.000Z</time>
      </trkpt>
      <trkpt lat="47.73251" lon="-3.38573">
        <ele>-75.146051</ele>
        <time>2020-12-29T09:53:44.000Z</time>
      </trkpt>
      <trkpt lat="47.73274" lon="-3.38545">
        <ele>-74.617827</ele>
        <time>2020-12-29T09:53:51.000Z</time>
      </trkpt>
      <trkpt lat="47.73287" lon="-3.3853">
        <ele>-74.330554</ele>
        <time>2020-12-29T09:53:55.000Z</time>
      </trkpt>
      <trkpt lat="47.73289" lon="-3.38526">
        <ele>-74.267772</ele>
        <time>2020-12-29T09:53:56.000Z</time>
      </trkpt>
      <trkpt lat="47.73302" lon="-3.38509">
        <ele>-73.965069</ele>
        <time>2020-12-29T09:54:01.000Z</time>
      </trkpt>
      <trkpt lat="47.73304" lon="-3.38506">
        <ele>-73.907872</ele>
        <time>2020-12-29T09:54:02.000Z</time>
      </trkpt>
      <trkpt lat="47.73313" lon="-3.38489">
        <ele>-73.648764</ele>
        <time>2020-12-29T09:54:07.000Z</time>
      </trkpt>
      <trkpt lat="47.7332" lon="-3.38488">
        <ele>-73.51788</ele>
        <time>2020-12-29T09:54:11.000Z</time>
      </trkpt>
      <trkpt lat="47.73323" lon="-3.38488">
        <ele>-73.461675</ele>
        <time>2020-12-29T09:54:13.000Z</time>
      </trkpt>
      <trkpt lat="47.73329" lon="-3.38485">
        <ele>-73.345864</ele>
        <time>2020-12-29T09:54:16.000Z</time>
      </trkpt>
      <trkpt lat="47.73344" lon="-3.38487">
        <ele>-73.081353</ele>
        <time>2020-12-29T09:54:21.000Z</time>
      </trkpt>
      <trkpt lat="47.73347" lon="-3.38489">
        <ele>-73.015447</ele>
        <time>2020-12-29T09:54:22.000Z</time>
      </trkpt>
      <trkpt lat="47.73361" lon="-3.38492">
        <ele>-72.762446</ele>
        <time>2020-12-29T09:54:26.000Z</time>
      </trkpt>
      <trkpt lat="47.73378" lon="-3.3848">
        <ele>-72.426522</ele>
        <time>2020-12-29T09:54:30.000Z</time>
      </trkpt>
      <trkpt lat="47.73382" lon="-3.38476">
        <ele>-72.331669</ele>
        <time>2020-12-29T09:54:31.000Z</time>
      </trkpt>
      <trkpt lat="47.73409" lon="-3.38454">
        <ele>-71.779453</ele>
        <time>2020-12-29T09:54:37.000Z</time>
      </trkpt>
      <trkpt lat="47.73418" lon="-3.38447">
        <ele>-71.591029</ele>
        <time>2020-12-29T09:54:39.000Z</time>
      </trkpt>
      <trkpt lat="47.73427" lon="-3.38441">
        <ele>-71.410109</ele>
        <time>2020-12-29T09:54:41.000Z</time>
      </trkpt>
      <trkpt lat="47.73444" lon="-3.38428">
        <ele>-71.066647</ele>
        <time>2020-12-29T09:54:45.000Z</time>
      </trkpt>
      <trkpt lat="47.73469" lon="-3.38415">
        <ele>-71.773106</ele>
        <time>2020-12-29T09:54:50.000Z</time>
      </trkpt>
      <trkpt lat="47.73479" lon="-3.38412">
        <ele>-72.088408</ele>
        <time>2020-12-29T09:54:52.000Z</time>
      </trkpt>
      <trkpt lat="47.73504" lon="-3.38397">
        <ele>-72.905641</ele>
        <time>2020-12-29T09:54:57.000Z</time>
      </trkpt>
      <trkpt lat="47.73531" lon="-3.3838">
        <ele>-73.823685</ele>
        <time>2020-12-29T09:55:02.000Z</time>
      </trkpt>
      <trkpt lat="47.73544" lon="-3.38373">
        <ele>-74.219748</ele>
        <time>2020-12-29T09:55:04.000Z</time>
      </trkpt>
      <trkpt lat="47.73562" lon="-3.3836">
        <ele>-74.845516</ele>
        <time>2020-12-29T09:55:07.000Z</time>
      </trkpt>
      <trkpt lat="47.73582" lon="-3.38345">
        <ele>-75.516693</ele>
        <time>2020-12-29T09:55:10.000Z</time>
      </trkpt>
      <trkpt lat="47.73603" lon="-3.38329">
        <ele>-76.233375</ele>
        <time>2020-12-29T09:55:13.000Z</time>
      </trkpt>
      <trkpt lat="47.73615" lon="-3.38319">
        <ele>-76.535236</ele>
        <time>2020-12-29T09:55:15.000Z</time>
      </trkpt>
      <trkpt lat="47.73641" lon="-3.38299">
        <ele>-76.643861</ele>
        <time>2020-12-29T09:55:19.000Z</time>
      </trkpt>
      <trkpt lat="47.73655" lon="-3.38289">
        <ele>-76.703195</ele>
        <time>2020-12-29T09:55:21.000Z</time>
      </trkpt>
      <trkpt lat="47.73676" lon="-3.38273">
        <ele>-76.794318</ele>
        <time>2020-12-29T09:55:24.000Z</time>
      </trkpt>
      <trkpt lat="47.73702" lon="-3.38253">
        <ele>-76.907734</ele>
        <time>2020-12-29T09:55:28.000Z</time>
      </trkpt>
      <trkpt lat="47.73746" lon="-3.38219">
        <ele>-77.096987</ele>
        <time>2020-12-29T09:55:35.000Z</time>
      </trkpt>
      <trkpt lat="47.73758" lon="-3.3821">
        <ele>-77.149466</ele>
        <time>2020-12-29T09:55:37.000Z</time>
      </trkpt>
      <trkpt lat="47.73793" lon="-3.38182">
        <ele>-75.742127</ele>
        <time>2020-12-29T09:55:43.000Z</time>
      </trkpt>
      <trkpt lat="47.73806" lon="-3.38169">
        <ele>-74.815994</ele>
        <time>2020-12-29T09:55:46.000Z</time>
      </trkpt>
      <trkpt lat="47.73821" lon="-3.38157">
        <ele>-73.830987</ele>
        <time>2020-12-29T09:55:49.000Z</time>
      </trkpt>
      <trkpt lat="47.73845" lon="-3.38139">
        <ele>-72.28702</ele>
        <time>2020-12-29T09:55:54.000Z</time>
      </trkpt>
      <trkpt lat="47.73849" lon="-3.38136">
        <ele>-71.97522</ele>
        <time>2020-12-29T09:55:55.000Z</time>
      </trkpt>
      <trkpt lat="47.73858" lon="-3.38127">
        <ele>-71.362933</ele>
        <time>2020-12-29T09:55:57.000Z</time>
      </trkpt>
      <trkpt lat="47.73863" lon="-3.38122">
        <ele>-71.049559</ele>
        <time>2020-12-29T09:55:58.000Z</time>
      </trkpt>
      <trkpt lat="47.73871" lon="-3.38113">
        <ele>-70.438863</ele>
        <time>2020-12-29T09:56:00.000Z</time>
      </trkpt>
      <trkpt lat="47.73882" lon="-3.38097">
        <ele>-69.555628</ele>
        <time>2020-12-29T09:56:03.000Z</time>
      </trkpt>
      <trkpt lat="47.73891" lon="-3.38081">
        <ele>-68.737292</ele>
        <time>2020-12-29T09:56:06.000Z</time>
      </trkpt>
      <trkpt lat="47.73897" lon="-3.38071">
        <ele>-68.186667</ele>
        <time>2020-12-29T09:56:08.000Z</time>
      </trkpt>
      <trkpt lat="47.739" lon="-3.38065">
        <ele>-67.893855</ele>
        <time>2020-12-29T09:56:09.000Z</time>
      </trkpt>
      <trkpt lat="47.73908" lon="-3.38055">
        <ele>-67.278001</ele>
        <time>2020-12-29T09:56:11.000Z</time>
      </trkpt>
      <trkpt lat="47.73912" lon="-3.3805">
        <ele>-66.980426</ele>
        <time>2020-12-29T09:56:12.000Z</time>
      </trkpt>
      <trkpt lat="47.73915" lon="-3.38045">
        <ele>-66.720116</ele>
        <time>2020-12-29T09:56:13.000Z</time>
      </trkpt>
      <trkpt lat="47.73923" lon="-3.38032">
        <ele>-66.567455</ele>
        <time>2020-12-29T09:56:16.000Z</time>
      </trkpt>
      <trkpt lat="47.73932" lon="-3.38034">
        <ele>-66.445864</ele>
        <time>2020-12-29T09:56:19.000Z</time>
      </trkpt>
      <trkpt lat="47.73945" lon="-3.38048">
        <ele>-66.234736</ele>
        <time>2020-12-29T09:56:24.000Z</time>
      </trkpt>
      <trkpt lat="47.73953" lon="-3.38054">
        <ele>-66.112649</ele>
        <time>2020-12-29T09:56:27.000Z</time>
      </trkpt>
      <trkpt lat="47.73959" lon="-3.3806">
        <ele>-66.02454</ele>
        <time>2020-12-29T09:56:29.000Z</time>
      </trkpt>
      <trkpt lat="47.73972" lon="-3.38079">
        <ele>-65.778727</ele>
        <time>2020-12-29T09:56:34.000Z</time>
      </trkpt>
      <trkpt lat="47.73997" lon="-3.38104">
        <ele>-65.385879</ele>
        <time>2020-12-29T09:56:41.000Z</time>
      </trkpt>
      <trkpt lat="47.74036" lon="-3.38142">
        <ele>-64.76344</ele>
        <time>2020-12-29T09:56:52.000Z</time>
      </trkpt>
      <trkpt lat="47.74051" lon="-3.38157">
        <ele>-64.526193</ele>
        <time>2020-12-29T09:56:56.000Z</time>
      </trkpt>
      <trkpt lat="47.74066" lon="-3.38172">
        <ele>-64.362625</ele>
        <time>2020-12-29T09:57:00.000Z</time>
      </trkpt>
      <trkpt lat="47.74095" lon="-3.38202">
        <ele>-64.523876</ele>
        <time>2020-12-29T09:57:08.000Z</time>
      </trkpt>
      <trkpt lat="47.74126" lon="-3.38231">
        <ele>-64.688812</ele>
        <time>2020-12-29T09:57:16.000Z</time>
      </trkpt>
      <trkpt lat="47.74148" lon="-3.38251">
        <ele>-64.805934</ele>
        <time>2020-12-29T09:57:22.000Z</time>
      </trkpt>
      <trkpt lat="47.74152" lon="-3.38252">
        <ele>-64.82425</ele>
        <time>2020-12-29T09:57:23.000Z</time>
      </trkpt>
      <trkpt lat="47.74164" lon="-3.38264">
        <ele>-64.889261</ele>
        <time>2020-12-29T09:57:27.000Z</time>
      </trkpt>
      <trkpt lat="47.74184" lon="-3.38286">
        <ele>-64.999898</ele>
        <time>2020-12-29T09:57:32.000Z</time>
      </trkpt>
      <trkpt lat="47.74195" lon="-3.38297">
        <ele>-65.059838</ele>
        <time>2020-12-29T09:57:35.000Z</time>
      </trkpt>
      <trkpt lat="47.74198" lon="-3.383">
        <ele>-65.078439</ele>
        <time>2020-12-29T09:57:36.000Z</time>
      </trkpt>
      <trkpt lat="47.74216" lon="-3.38314">
        <ele>-65.172726</ele>
        <time>2020-12-29T09:57:40.000Z</time>
      </trkpt>
      <trkpt lat="47.7422" lon="-3.38317">
        <ele>-65.197986</ele>
        <time>2020-12-29T09:57:41.000Z</time>
      </trkpt>
      <trkpt lat="47.74247" lon="-3.38338">
        <ele>-65.36849</ele>
        <time>2020-12-29T09:57:47.000Z</time>
      </trkpt>
      <trkpt lat="47.74274" lon="-3.38361">
        <ele>-65.548836</ele>
        <time>2020-12-29T09:57:54.000Z</time>
      </trkpt>
      <trkpt lat="47.74281" lon="-3.3837">
        <ele>-65.598531</ele>
        <time>2020-12-29T09:57:58.000Z</time>
      </trkpt>
      <trkpt lat="47.74296" lon="-3.38384">
        <ele>-65.700612</ele>
        <time>2020-12-29T09:58:03.000Z</time>
      </trkpt>
      <trkpt lat="47.74305" lon="-3.38391">
        <ele>-65.755654</ele>
        <time>2020-12-29T09:58:05.000Z</time>
      </trkpt>
      <trkpt lat="47.74319" lon="-3.384">
        <ele>-65.840741</ele>
        <time>2020-12-29T09:58:08.000Z</time>
      </trkpt>
      <trkpt lat="47.74351" lon="-3.38413">
        <ele>-66.033491</ele>
        <time>2020-12-29T09:58:15.000Z</time>
      </trkpt>
      <trkpt lat="47.74356" lon="-3.38413">
        <ele>-66.060168</ele>
        <time>2020-12-29T09:58:16.000Z</time>
      </trkpt>
      <trkpt lat="47.74379" lon="-3.38415">
        <ele>-66.149735</ele>
        <time>2020-12-29T09:58:21.000Z</time>
      </trkpt>
      <trkpt lat="47.74414" lon="-3.38417">
        <ele>-65.761551</ele>
        <time>2020-12-29T09:58:28.000Z</time>
      </trkpt>
      <trkpt lat="47.74455" lon="-3.38419">
        <ele>-65.290846</ele>
        <time>2020-12-29T09:58:37.000Z</time>
      </trkpt>
      <trkpt lat="47.7447" lon="-3.38419">
        <ele>-65.13178</ele>
        <time>2020-12-29T09:58:40.000Z</time>
      </trkpt>
      <trkpt lat="47.74489" lon="-3.3842">
        <ele>-64.917396</ele>
        <time>2020-12-29T09:58:44.000Z</time>
      </trkpt>
      <trkpt lat="47.74527" lon="-3.38421">
        <ele>-64.48302</ele>
        <time>2020-12-29T09:58:52.000Z</time>
      </trkpt>
      <trkpt lat="47.74551" lon="-3.38421">
        <ele>-64.211085</ele>
        <time>2020-12-29T09:58:57.000Z</time>
      </trkpt>
      <trkpt lat="47.74555" lon="-3.38422">
        <ele>-64.162554</ele>
        <time>2020-12-29T09:58:58.000Z</time>
      </trkpt>
      <trkpt lat="47.74589" lon="-3.3842">
        <ele>-63.981741</ele>
        <time>2020-12-29T09:59:05.000Z</time>
      </trkpt>
      <trkpt lat="47.74626" lon="-3.38417">
        <ele>-63.784631</ele>
        <time>2020-12-29T09:59:13.000Z</time>
      </trkpt>
      <trkpt lat="47.74645" lon="-3.38415">
        <ele>-63.687197</ele>
        <time>2020-12-29T09:59:17.000Z</time>
      </trkpt>
      <trkpt lat="47.74654" lon="-3.38414">
        <ele>-63.639979</ele>
        <time>2020-12-29T09:59:19.000Z</time>
      </trkpt>
      <trkpt lat="47.74684" lon="-3.38409">
        <ele>-63.480414</ele>
        <time>2020-12-29T09:59:26.000Z</time>
      </trkpt>
      <trkpt lat="47.74697" lon="-3.38406">
        <ele>-63.412954</ele>
        <time>2020-12-29T09:59:31.000Z</time>
      </trkpt>
      <trkpt lat="47.74698" lon="-3.38407">
        <ele>-63.407444</ele>
        <time>2020-12-29T09:59:33.000Z</time>
      </trkpt>
      <trkpt lat="47.74701" lon="-3.38408">
        <ele>-63.391816</ele>
        <time>2020-12-29T09:59:35.000Z</time>
      </trkpt>
      <trkpt lat="47.74708" lon="-3.38417">
        <ele>-63.346386</ele>
        <time>2020-12-29T09:59:39.000Z</time>
      </trkpt>
      <trkpt lat="47.74709" lon="-3.38418">
        <ele>-63.33732</ele>
        <time>2020-12-29T09:59:40.000Z</time>
      </trkpt>
      <trkpt lat="47.74713" lon="-3.38419">
        <ele>-63.315678</ele>
        <time>2020-12-29T09:59:43.000Z</time>
      </trkpt>
      <trkpt lat="47.74723" lon="-3.38425">
        <ele>-63.262123</ele>
        <time>2020-12-29T09:59:47.000Z</time>
      </trkpt>
      <trkpt lat="47.74725" lon="-3.38428">
        <ele>-63.244668</ele>
        <time>2020-12-29T09:59:48.000Z</time>
      </trkpt>
      <trkpt lat="47.74732" lon="-3.3844">
        <ele>-63.135497</ele>
        <time>2020-12-29T09:59:51.000Z</time>
      </trkpt>
      <trkpt lat="47.74734" lon="-3.38443">
        <ele>-63.069587</ele>
        <time>2020-12-29T09:59:52.000Z</time>
      </trkpt>
      <trkpt lat="47.7474" lon="-3.38455">
        <ele>-62.860398</ele>
        <time>2020-12-29T09:59:55.000Z</time>
      </trkpt>
      <trkpt lat="47.74749" lon="-3.38468">
        <ele>-62.606214</ele>
        <time>2020-12-29T09:59:58.000Z</time>
      </trkpt>
      <trkpt lat="47.74756" lon="-3.38481">
        <ele>-62.373693</ele>
        <time>2020-12-29T10:00:01.000Z</time>
      </trkpt>
      <trkpt lat="47.74756" lon="-3.3849">
        <ele>-62.246747</ele>
        <time>2020-12-29T10:00:03.000Z</time>
      </trkpt>
      <trkpt lat="47.74758" lon="-3.3851">
        <ele>-61.970546</ele>
        <time>2020-12-29T10:00:06.000Z</time>
      </trkpt>
      <trkpt lat="47.74766" lon="-3.38527">
        <ele>-61.676685</ele>
        <time>2020-12-29T10:00:09.000Z</time>
      </trkpt>
      <trkpt lat="47.74769" lon="-3.38533">
        <ele>-61.577556</ele>
        <time>2020-12-29T10:00:10.000Z</time>
      </trkpt>
      <trkpt lat="47.74772" lon="-3.38538">
        <ele>-61.480188</ele>
        <time>2020-12-29T10:00:11.000Z</time>
      </trkpt>
      <trkpt lat="47.74786" lon="-3.38555">
        <ele>-61.112838</ele>
        <time>2020-12-29T10:00:15.000Z</time>
      </trkpt>
      <trkpt lat="47.74806" lon="-3.38569">
        <ele>-60.660839</ele>
        <time>2020-12-29T10:00:21.000Z</time>
      </trkpt>
      <trkpt lat="47.74826" lon="-3.38573">
        <ele>-60.234455</ele>
        <time>2020-12-29T10:00:26.000Z</time>
      </trkpt>
      <trkpt lat="47.74835" lon="-3.38573">
        <ele>-60.042426</ele>
        <time>2020-12-29T10:00:29.000Z</time>
      </trkpt>
      <trkpt lat="47.74841" lon="-3.38573">
        <ele>-59.92679</ele>
        <time>2020-12-29T10:00:31.000Z</time>
      </trkpt>
      <trkpt lat="47.74844" lon="-3.38573">
        <ele>-59.86891</ele>
        <time>2020-12-29T10:00:32.000Z</time>
      </trkpt>
      <trkpt lat="47.74855" lon="-3.38572">
        <ele>-59.64364</ele>
        <time>2020-12-29T10:00:35.000Z</time>
      </trkpt>
      <trkpt lat="47.74862" lon="-3.38571">
        <ele>-59.495506</ele>
        <time>2020-12-29T10:00:37.000Z</time>
      </trkpt>
      <trkpt lat="47.74882" lon="-3.38562">
        <ele>-58.97114</ele>
        <time>2020-12-29T10:00:43.000Z</time>
      </trkpt>
      <trkpt lat="47.74886" lon="-3.38538">
        <ele>-58.549874</ele>
        <time>2020-12-29T10:00:48.000Z</time>
      </trkpt>
      <trkpt lat="47.7489" lon="-3.38517">
        <ele>-58.176971</ele>
        <time>2020-12-29T10:00:52.000Z</time>
      </trkpt>
      <trkpt lat="47.74892" lon="-3.38513">
        <ele>-58.08884</ele>
        <time>2020-12-29T10:00:53.000Z</time>
      </trkpt>
      <trkpt lat="47.74896" lon="-3.38511">
        <ele>-57.996917</ele>
        <time>2020-12-29T10:00:54.000Z</time>
      </trkpt>
      <trkpt lat="47.7491" lon="-3.38512">
        <ele>-57.646411</ele>
        <time>2020-12-29T10:00:57.000Z</time>
      </trkpt>
      <trkpt lat="47.74915" lon="-3.38513">
        <ele>-57.512297</ele>
        <time>2020-12-29T10:00:58.000Z</time>
      </trkpt>
      <trkpt lat="47.74941" lon="-3.38518">
        <ele>-56.844227</ele>
        <time>2020-12-29T10:01:03.000Z</time>
      </trkpt>
      <trkpt lat="47.74952" lon="-3.38519">
        <ele>-56.574178</ele>
        <time>2020-12-29T10:01:05.000Z</time>
      </trkpt>
      <trkpt lat="47.74982" lon="-3.38529">
        <ele>-55.796007</ele>
        <time>2020-12-29T10:01:11.000Z</time>
      </trkpt>
      <trkpt lat="47.75017" lon="-3.38535">
        <ele>-54.920647</ele>
        <time>2020-12-29T10:01:18.000Z</time>
      </trkpt>
      <trkpt lat="47.75032" lon="-3.38537">
        <ele>-54.598071</ele>
        <time>2020-12-29T10:01:21.000Z</time>
      </trkpt>
      <trkpt lat="47.75046" lon="-3.3854">
        <ele>-54.297748</ele>
        <time>2020-12-29T10:01:24.000Z</time>
      </trkpt>
      <trkpt lat="47.75079" lon="-3.38544">
        <ele>-53.589828</ele>
        <time>2020-12-29T10:01:31.000Z</time>
      </trkpt>
      <trkpt lat="47.75088" lon="-3.38543">
        <ele>-53.380706</ele>
        <time>2020-12-29T10:01:33.000Z</time>
      </trkpt>
      <trkpt lat="47.75103" lon="-3.38546">
        <ele>-53.070654</ele>
        <time>2020-12-29T10:01:36.000Z</time>
      </trkpt>
      <trkpt lat="47.75129" lon="-3.38543">
        <ele>-52.514087</ele>
        <time>2020-12-29T10:01:42.000Z</time>
      </trkpt>
      <trkpt lat="47.75136" lon="-3.38545">
        <ele>-52.345073</ele>
        <time>2020-12-29T10:01:44.000Z</time>
      </trkpt>
      <trkpt lat="47.75143" lon="-3.38559">
        <ele>-52.09391</ele>
        <time>2020-12-29T10:01:47.000Z</time>
      </trkpt>
      <trkpt lat="47.7515" lon="-3.38576">
        <ele>-51.798196</ele>
        <time>2020-12-29T10:01:50.000Z</time>
      </trkpt>
      <trkpt lat="47.75153" lon="-3.38581">
        <ele>-51.700381</ele>
        <time>2020-12-29T10:01:51.000Z</time>
      </trkpt>
      <trkpt lat="47.75156" lon="-3.38586">
        <ele>-51.603676</ele>
        <time>2020-12-29T10:01:52.000Z</time>
      </trkpt>
      <trkpt lat="47.75177" lon="-3.38617">
        <ele>-50.970336</ele>
        <time>2020-12-29T10:01:59.000Z</time>
      </trkpt>
      <trkpt lat="47.75181" lon="-3.38619">
        <ele>-50.873492</ele>
        <time>2020-12-29T10:02:00.000Z</time>
      </trkpt>
      <trkpt lat="47.75199" lon="-3.38623">
        <ele>-50.455945</ele>
        <time>2020-12-29T10:02:04.000Z</time>
      </trkpt>
      <trkpt lat="47.75213" lon="-3.38627">
        <ele>-50.12794</ele>
        <time>2020-12-29T10:02:07.000Z</time>
      </trkpt>
      <trkpt lat="47.75222" lon="-3.38627">
        <ele>-49.92922</ele>
        <time>2020-12-29T10:02:09.000Z</time>
      </trkpt>
      <trkpt lat="47.75226" lon="-3.38628">
        <ele>-49.836616</ele>
        <time>2020-12-29T10:02:10.000Z</time>
      </trkpt>
      <trkpt lat="47.75231" lon="-3.38636">
        <ele>-49.665813</ele>
        <time>2020-12-29T10:02:12.000Z</time>
      </trkpt>
      <trkpt lat="47.75232" lon="-3.38654">
        <ele>-49.389906</ele>
        <time>2020-12-29T10:02:15.000Z</time>
      </trkpt>
      <trkpt lat="47.75232" lon="-3.3866">
        <ele>-49.296022</ele>
        <time>2020-12-29T10:02:16.000Z</time>
      </trkpt>
      <trkpt lat="47.75234" lon="-3.3867">
        <ele>-49.145694</ele>
        <time>2020-12-29T10:02:18.000Z</time>
      </trkpt>
      <trkpt lat="47.75238" lon="-3.38676">
        <ele>-49.017866</ele>
        <time>2020-12-29T10:02:20.000Z</time>
      </trkpt>
      <trkpt lat="47.75242" lon="-3.38693">
        <ele>-48.739684</ele>
        <time>2020-12-29T10:02:23.000Z</time>
      </trkpt>
      <trkpt lat="47.75243" lon="-3.38735">
        <ele>-48.091243</ele>
        <time>2020-12-29T10:02:30.000Z</time>
      </trkpt>
      <trkpt lat="47.75243" lon="-3.38737">
        <ele>-48.054139</ele>
        <time>2020-12-29T10:02:31.000Z</time>
      </trkpt>
      <trkpt lat="47.75242" lon="-3.38742">
        <ele>-47.989307</ele>
        <time>2020-12-29T10:02:33.000Z</time>
      </trkpt>
      <trkpt lat="47.75243" lon="-3.38743">
        <ele>-47.958708</ele>
        <time>2020-12-29T10:02:34.000Z</time>
      </trkpt>
      <trkpt lat="47.75248" lon="-3.38745">
        <ele>-47.83569</ele>
        <time>2020-12-29T10:02:37.000Z</time>
      </trkpt>
      <trkpt lat="47.75251" lon="-3.38746">
        <ele>-47.769322</ele>
        <time>2020-12-29T10:02:38.000Z</time>
      </trkpt>
      <trkpt lat="47.75269" lon="-3.38749">
        <ele>-47.358401</ele>
        <time>2020-12-29T10:02:44.000Z</time>
      </trkpt>
      <trkpt lat="47.75275" lon="-3.38748">
        <ele>-47.235078</ele>
        <time>2020-12-29T10:02:46.000Z</time>
      </trkpt>
      <trkpt lat="47.75287" lon="-3.38748">
        <ele>-46.99941</ele>
        <time>2020-12-29T10:02:50.000Z</time>
      </trkpt>
      <trkpt lat="47.75311" lon="-3.38749">
        <ele>-47.061783</ele>
        <time>2020-12-29T10:02:57.000Z</time>
      </trkpt>
      <trkpt lat="47.75333" lon="-3.38749">
        <ele>-47.117656</ele>
        <time>2020-12-29T10:03:03.000Z</time>
      </trkpt>
      <trkpt lat="47.75351" lon="-3.38751">
        <ele>-47.166084</ele>
        <time>2020-12-29T10:03:10.000Z</time>
      </trkpt>
      <trkpt lat="47.75359" lon="-3.3875">
        <ele>-47.18636</ele>
        <time>2020-12-29T10:03:13.000Z</time>
      </trkpt>
      <trkpt lat="47.7537" lon="-3.3875">
        <ele>-47.214686</ele>
        <time>2020-12-29T10:03:17.000Z</time>
      </trkpt>
      <trkpt lat="47.75378" lon="-3.38754">
        <ele>-47.236564</ele>
        <time>2020-12-29T10:03:20.000Z</time>
      </trkpt>
      <trkpt lat="47.75383" lon="-3.3876">
        <ele>-47.252947</ele>
        <time>2020-12-29T10:03:22.000Z</time>
      </trkpt>
      <trkpt lat="47.75384" lon="-3.38765">
        <ele>-47.261611</ele>
        <time>2020-12-29T10:03:23.000Z</time>
      </trkpt>
      <trkpt lat="47.75386" lon="-3.38782">
        <ele>-47.291534</ele>
        <time>2020-12-29T10:03:26.000Z</time>
      </trkpt>
      <trkpt lat="47.75387" lon="-3.38814">
        <ele>-47.348085</ele>
        <time>2020-12-29T10:03:31.000Z</time>
      </trkpt>
      <trkpt lat="47.75388" lon="-3.38834">
        <ele>-47.383299</ele>
        <time>2020-12-29T10:03:34.000Z</time>
      </trkpt>
      <trkpt lat="47.75388" lon="-3.38881">
        <ele>-47.455115</ele>
        <time>2020-12-29T10:03:41.000Z</time>
      </trkpt>
      <trkpt lat="47.75388" lon="-3.38906">
        <ele>-47.366973</ele>
        <time>2020-12-29T10:03:45.000Z</time>
      </trkpt>
      <trkpt lat="47.75391" lon="-3.38917">
        <ele>-47.325027</ele>
        <time>2020-12-29T10:03:47.000Z</time>
      </trkpt>
      <trkpt lat="47.75401" lon="-3.38922">
        <ele>-47.27308</ele>
        <time>2020-12-29T10:03:50.000Z</time>
      </trkpt>
      <trkpt lat="47.7541" lon="-3.38914">
        <ele>-47.214767</ele>
        <time>2020-12-29T10:03:53.000Z</time>
      </trkpt>
      <trkpt lat="47.75414" lon="-3.3891">
        <ele>-47.191492</ele>
        <time>2020-12-29T10:03:54.000Z</time>
      </trkpt>
      <trkpt lat="47.75418" lon="-3.38906">
        <ele>-47.168416</ele>
        <time>2020-12-29T10:03:55.000Z</time>
      </trkpt>
      <trkpt lat="47.75439" lon="-3.38881">
        <ele>-47.026688</ele>
        <time>2020-12-29T10:04:01.000Z</time>
      </trkpt>
      <trkpt lat="47.75446" lon="-3.38874">
        <ele>-46.982618</ele>
        <time>2020-12-29T10:04:03.000Z</time>
      </trkpt>
      <trkpt lat="47.75455" lon="-3.38868">
        <ele>-46.933885</ele>
        <time>2020-12-29T10:04:06.000Z</time>
      </trkpt>
      <trkpt lat="47.75461" lon="-3.38872">
        <ele>-46.89745</ele>
        <time>2020-12-29T10:04:09.000Z</time>
      </trkpt>
      <trkpt lat="47.75464" lon="-3.38872">
        <ele>-46.881849</ele>
        <time>2020-12-29T10:04:10.000Z</time>
      </trkpt>
      <trkpt lat="47.75485" lon="-3.3888">
        <ele>-46.769479</ele>
        <time>2020-12-29T10:04:15.000Z</time>
      </trkpt>
      <trkpt lat="47.75514" lon="-3.38903">
        <ele>-46.597878</ele>
        <time>2020-12-29T10:04:22.000Z</time>
      </trkpt>
      <trkpt lat="47.75525" lon="-3.38909">
        <ele>-46.539234</ele>
        <time>2020-12-29T10:04:26.000Z</time>
      </trkpt>
      <trkpt lat="47.7554" lon="-3.38914">
        <ele>-46.699866</ele>
        <time>2020-12-29T10:04:31.000Z</time>
      </trkpt>
      <trkpt lat="47.75553" lon="-3.38929">
        <ele>-46.913471</ele>
        <time>2020-12-29T10:04:36.000Z</time>
      </trkpt>
      <trkpt lat="47.75561" lon="-3.38941">
        <ele>-47.067929</ele>
        <time>2020-12-29T10:04:40.000Z</time>
      </trkpt>
      <trkpt lat="47.75565" lon="-3.38962">
        <ele>-47.260769</ele>
        <time>2020-12-29T10:04:44.000Z</time>
      </trkpt>
      <trkpt lat="47.75568" lon="-3.3898">
        <ele>-47.414497</ele>
        <time>2020-12-29T10:04:47.000Z</time>
      </trkpt>
      <trkpt lat="47.75574" lon="-3.39012">
        <ele>-47.707038</ele>
        <time>2020-12-29T10:04:52.000Z</time>
      </trkpt>
      <trkpt lat="47.75576" lon="-3.39018">
        <ele>-47.764289</ele>
        <time>2020-12-29T10:04:53.000Z</time>
      </trkpt>
      <trkpt lat="47.75587" lon="-3.39065">
        <ele>-48.19711</ele>
        <time>2020-12-29T10:05:01.000Z</time>
      </trkpt>
      <trkpt lat="47.756" lon="-3.39077">
        <ele>-48.388138</ele>
        <time>2020-12-29T10:05:06.000Z</time>
      </trkpt>
      <trkpt lat="47.75611" lon="-3.39091">
        <ele>-48.58172</ele>
        <time>2020-12-29T10:05:11.000Z</time>
      </trkpt>
      <trkpt lat="47.75616" lon="-3.39112">
        <ele>-48.776963</ele>
        <time>2020-12-29T10:05:16.000Z</time>
      </trkpt>
      <trkpt lat="47.75617" lon="-3.39113">
        <ele>-48.797864</ele>
        <time>2020-12-29T10:05:17.000Z</time>
      </trkpt>
      <trkpt lat="47.75627" lon="-3.39107">
        <ele>-49.001405</ele>
        <time>2020-12-29T10:05:21.000Z</time>
      </trkpt>
      <trkpt lat="47.7565" lon="-3.39087">
        <ele>-49.631612</ele>
        <time>2020-12-29T10:05:27.000Z</time>
      </trkpt>
      <trkpt lat="47.75671" lon="-3.39077">
        <ele>-50.151644</ele>
        <time>2020-12-29T10:05:32.000Z</time>
      </trkpt>
    </trkseg>
  </trk>
</gpx>